<?xml version="1.0" encoding="UTF-8" standalone="no" ?>
<gpx xmlns="http://www.topografix.com/GPX/1/1" xmlns:xsi="http://www.w3.org/2001/XMLSchema-instance" xsi:schemaLocation="http://www.topografix.com/GPX/1/1 http://www.topografix.com/GPX/1/1/gpx.xsd" version="1.1" creator="VisuGPX - https://www.visugpx.com">
  <metadata>
    <name>Le Montoncel</name>
    <desc><![CDATA[Départ du col de la Charme, sentier non balisé, mais facilement repérable avec la carte en main où avec le gps rando.]]></desc>
  </metadata>
  <trk>
    <name><![CDATA[4833146-col charme au montoncel]]></name>
    <trkseg>
      <trkpt lat="45.92168" lon="3.72378">
        <ele>1124</ele>
        <time>2017-06-04T08:19:02Z</time>
      </trkpt>
      <trkpt lat="45.92175" lon="3.7237">
        <ele>1125</ele>
        <time>2017-06-04T08:20:02Z</time>
      </trkpt>
      <trkpt lat="45.92181" lon="3.72358">
        <ele>1125</ele>
        <time>2017-06-04T08:21:02Z</time>
      </trkpt>
      <trkpt lat="45.92183" lon="3.72344">
        <ele>1125</ele>
        <time>2017-06-04T08:22:02Z</time>
      </trkpt>
      <trkpt lat="45.92189" lon="3.72334">
        <ele>1125</ele>
        <time>2017-06-04T08:23:02Z</time>
      </trkpt>
      <trkpt lat="45.92195" lon="3.72324">
        <ele>1125</ele>
        <time>2017-06-04T08:24:02Z</time>
      </trkpt>
      <trkpt lat="45.92209" lon="3.72306">
        <ele>1125</ele>
        <time>2017-06-04T08:25:02Z</time>
      </trkpt>
      <trkpt lat="45.92217" lon="3.72297">
        <ele>1125</ele>
        <time>2017-06-04T08:26:02Z</time>
      </trkpt>
      <trkpt lat="45.92226" lon="3.72291">
        <ele>1125</ele>
        <time>2017-06-04T08:27:02Z</time>
      </trkpt>
      <trkpt lat="45.92228" lon="3.72279">
        <ele>1125</ele>
        <time>2017-06-04T08:28:02Z</time>
      </trkpt>
      <trkpt lat="45.92234" lon="3.72269">
        <ele>1125</ele>
        <time>2017-06-04T08:29:02Z</time>
      </trkpt>
      <trkpt lat="45.92243" lon="3.72262">
        <ele>1124</ele>
        <time>2017-06-04T08:30:02Z</time>
      </trkpt>
      <trkpt lat="45.92248" lon="3.72249">
        <ele>1124</ele>
        <time>2017-06-04T08:31:02Z</time>
      </trkpt>
      <trkpt lat="45.9225" lon="3.72235">
        <ele>1124</ele>
        <time>2017-06-04T08:32:02Z</time>
      </trkpt>
      <trkpt lat="45.92256" lon="3.72224">
        <ele>1124</ele>
        <time>2017-06-04T08:33:02Z</time>
      </trkpt>
      <trkpt lat="45.92262" lon="3.72212">
        <ele>1124</ele>
        <time>2017-06-04T08:34:02Z</time>
      </trkpt>
      <trkpt lat="45.92266" lon="3.72199">
        <ele>1124</ele>
        <time>2017-06-04T08:35:02Z</time>
      </trkpt>
      <trkpt lat="45.92272" lon="3.72188">
        <ele>1125</ele>
        <time>2017-06-04T08:36:02Z</time>
      </trkpt>
      <trkpt lat="45.92287" lon="3.72169">
        <ele>1125</ele>
        <time>2017-06-04T08:37:02Z</time>
      </trkpt>
      <trkpt lat="45.92294" lon="3.72159">
        <ele>1126</ele>
        <time>2017-06-04T08:38:02Z</time>
      </trkpt>
      <trkpt lat="45.92301" lon="3.72149">
        <ele>1126</ele>
        <time>2017-06-04T08:39:02Z</time>
      </trkpt>
      <trkpt lat="45.92303" lon="3.72135">
        <ele>1127</ele>
        <time>2017-06-04T08:40:02Z</time>
      </trkpt>
      <trkpt lat="45.92306" lon="3.72122">
        <ele>1127</ele>
        <time>2017-06-04T08:41:02Z</time>
      </trkpt>
      <trkpt lat="45.9231" lon="3.72109">
        <ele>1127</ele>
        <time>2017-06-04T08:42:02Z</time>
      </trkpt>
      <trkpt lat="45.92315" lon="3.72099">
        <ele>1128</ele>
        <time>2017-06-04T08:43:02Z</time>
      </trkpt>
      <trkpt lat="45.92324" lon="3.72091">
        <ele>1128</ele>
        <time>2017-06-04T08:44:02Z</time>
      </trkpt>
      <trkpt lat="45.92327" lon="3.72076">
        <ele>1129</ele>
        <time>2017-06-04T08:45:02Z</time>
      </trkpt>
      <trkpt lat="45.92328" lon="3.72063">
        <ele>1129</ele>
        <time>2017-06-04T08:46:02Z</time>
      </trkpt>
      <trkpt lat="45.92331" lon="3.72051">
        <ele>1129</ele>
        <time>2017-06-04T08:47:02Z</time>
      </trkpt>
      <trkpt lat="45.92335" lon="3.72038">
        <ele>1130</ele>
        <time>2017-06-04T08:48:02Z</time>
      </trkpt>
      <trkpt lat="45.92342" lon="3.72027">
        <ele>1130</ele>
        <time>2017-06-04T08:49:02Z</time>
      </trkpt>
      <trkpt lat="45.92348" lon="3.72015">
        <ele>1131</ele>
        <time>2017-06-04T08:50:02Z</time>
      </trkpt>
      <trkpt lat="45.92356" lon="3.71989">
        <ele>1132</ele>
        <time>2017-06-04T08:51:02Z</time>
      </trkpt>
      <trkpt lat="45.92362" lon="3.71979">
        <ele>1132</ele>
        <time>2017-06-04T08:52:02Z</time>
      </trkpt>
      <trkpt lat="45.92374" lon="3.71955">
        <ele>1133</ele>
        <time>2017-06-04T08:53:02Z</time>
      </trkpt>
      <trkpt lat="45.92381" lon="3.71948">
        <ele>1134</ele>
        <time>2017-06-04T08:54:02Z</time>
      </trkpt>
      <trkpt lat="45.92388" lon="3.71939">
        <ele>1135</ele>
        <time>2017-06-04T08:55:02Z</time>
      </trkpt>
      <trkpt lat="45.92396" lon="3.71923">
        <ele>1137</ele>
        <time>2017-06-04T08:56:02Z</time>
      </trkpt>
      <trkpt lat="45.92388" lon="3.71903">
        <ele>1137</ele>
        <time>2017-06-04T08:57:02Z</time>
      </trkpt>
      <trkpt lat="45.92384" lon="3.7189">
        <ele>1138</ele>
        <time>2017-06-04T08:58:02Z</time>
      </trkpt>
      <trkpt lat="45.92394" lon="3.71893">
        <ele>1139</ele>
        <time>2017-06-04T08:59:02Z</time>
      </trkpt>
      <trkpt lat="45.92393" lon="3.71915">
        <ele>1137</ele>
        <time>2017-06-04T09:00:02Z</time>
      </trkpt>
      <trkpt lat="45.92386" lon="3.71902">
        <ele>1137</ele>
        <time>2017-06-04T09:01:02Z</time>
      </trkpt>
      <trkpt lat="45.92385" lon="3.71889">
        <ele>1138</ele>
        <time>2017-06-04T09:02:02Z</time>
      </trkpt>
      <trkpt lat="45.92394" lon="3.71888">
        <ele>1139</ele>
        <time>2017-06-04T09:03:02Z</time>
      </trkpt>
      <trkpt lat="45.92403" lon="3.71881">
        <ele>1141</ele>
        <time>2017-06-04T09:04:02Z</time>
      </trkpt>
      <trkpt lat="45.92414" lon="3.7189">
        <ele>1141</ele>
        <time>2017-06-04T09:05:02Z</time>
      </trkpt>
      <trkpt lat="45.92408" lon="3.7188">
        <ele>1141</ele>
        <time>2017-06-04T09:06:02Z</time>
      </trkpt>
      <trkpt lat="45.92399" lon="3.71883">
        <ele>1140</ele>
        <time>2017-06-04T09:07:02Z</time>
      </trkpt>
      <trkpt lat="45.92389" lon="3.71888">
        <ele>1138</ele>
        <time>2017-06-04T09:08:02Z</time>
      </trkpt>
      <trkpt lat="45.92383" lon="3.71897">
        <ele>1137</ele>
        <time>2017-06-04T09:09:02Z</time>
      </trkpt>
      <trkpt lat="45.92392" lon="3.71893">
        <ele>1138</ele>
        <time>2017-06-04T09:10:02Z</time>
      </trkpt>
      <trkpt lat="45.92383" lon="3.71898">
        <ele>1137</ele>
        <time>2017-06-04T09:11:02Z</time>
      </trkpt>
      <trkpt lat="45.92388" lon="3.71886">
        <ele>1138</ele>
        <time>2017-06-04T09:12:02Z</time>
      </trkpt>
      <trkpt lat="45.92387" lon="3.719">
        <ele>1137</ele>
        <time>2017-06-04T09:13:02Z</time>
      </trkpt>
      <trkpt lat="45.92393" lon="3.71891">
        <ele>1139</ele>
        <time>2017-06-04T09:14:02Z</time>
      </trkpt>
      <trkpt lat="45.92383" lon="3.7189">
        <ele>1138</ele>
        <time>2017-06-04T09:15:02Z</time>
      </trkpt>
      <trkpt lat="45.92376" lon="3.71902">
        <ele>1136</ele>
        <time>2017-06-04T09:16:02Z</time>
      </trkpt>
      <trkpt lat="45.92383" lon="3.71912">
        <ele>1136</ele>
        <time>2017-06-04T09:17:02Z</time>
      </trkpt>
      <trkpt lat="45.92389" lon="3.71923">
        <ele>1136</ele>
        <time>2017-06-04T09:18:02Z</time>
      </trkpt>
      <trkpt lat="45.92397" lon="3.71931">
        <ele>1136</ele>
        <time>2017-06-04T09:19:02Z</time>
      </trkpt>
      <trkpt lat="45.92404" lon="3.71939">
        <ele>1137</ele>
        <time>2017-06-04T09:20:02Z</time>
      </trkpt>
      <trkpt lat="45.92414" lon="3.71945">
        <ele>1137</ele>
        <time>2017-06-04T09:21:02Z</time>
      </trkpt>
      <trkpt lat="45.92415" lon="3.71958">
        <ele>1137</ele>
        <time>2017-06-04T09:22:02Z</time>
      </trkpt>
      <trkpt lat="45.92412" lon="3.71972">
        <ele>1136</ele>
        <time>2017-06-04T09:23:02Z</time>
      </trkpt>
      <trkpt lat="45.92409" lon="3.71985">
        <ele>1135</ele>
        <time>2017-06-04T09:24:02Z</time>
      </trkpt>
      <trkpt lat="45.92405" lon="3.71997">
        <ele>1134</ele>
        <time>2017-06-04T09:25:02Z</time>
      </trkpt>
      <trkpt lat="45.92399" lon="3.72012">
        <ele>1133</ele>
        <time>2017-06-04T09:26:02Z</time>
      </trkpt>
      <trkpt lat="45.9241" lon="3.72014">
        <ele>1134</ele>
        <time>2017-06-04T09:27:02Z</time>
      </trkpt>
      <trkpt lat="45.92419" lon="3.7201">
        <ele>1134</ele>
        <time>2017-06-04T09:28:02Z</time>
      </trkpt>
      <trkpt lat="45.92456" lon="3.72015">
        <ele>1133</ele>
        <time>2017-06-04T09:29:02Z</time>
      </trkpt>
      <trkpt lat="45.92475" lon="3.72016">
        <ele>1133</ele>
        <time>2017-06-04T09:30:02Z</time>
      </trkpt>
      <trkpt lat="45.92485" lon="3.72012">
        <ele>1133</ele>
        <time>2017-06-04T09:31:02Z</time>
      </trkpt>
      <trkpt lat="45.92494" lon="3.72007">
        <ele>1133</ele>
        <time>2017-06-04T09:32:02Z</time>
      </trkpt>
      <trkpt lat="45.92503" lon="3.72007">
        <ele>1132</ele>
        <time>2017-06-04T09:33:02Z</time>
      </trkpt>
      <trkpt lat="45.92512" lon="3.72001">
        <ele>1132</ele>
        <time>2017-06-04T09:34:02Z</time>
      </trkpt>
      <trkpt lat="45.92531" lon="3.71995">
        <ele>1131</ele>
        <time>2017-06-04T09:35:02Z</time>
      </trkpt>
      <trkpt lat="45.92538" lon="3.71984">
        <ele>1132</ele>
        <time>2017-06-04T09:36:02Z</time>
      </trkpt>
      <trkpt lat="45.92579" lon="3.71956">
        <ele>1131</ele>
        <time>2017-06-04T09:37:02Z</time>
      </trkpt>
      <trkpt lat="45.92601" lon="3.71951">
        <ele>1129</ele>
        <time>2017-06-04T09:38:02Z</time>
      </trkpt>
      <trkpt lat="45.92612" lon="3.71948">
        <ele>1128</ele>
        <time>2017-06-04T09:39:02Z</time>
      </trkpt>
      <trkpt lat="45.92621" lon="3.71948">
        <ele>1127</ele>
        <time>2017-06-04T09:40:02Z</time>
      </trkpt>
      <trkpt lat="45.92628" lon="3.71958">
        <ele>1125</ele>
        <time>2017-06-04T09:41:02Z</time>
      </trkpt>
      <trkpt lat="45.92633" lon="3.71971">
        <ele>1123</ele>
        <time>2017-06-04T09:42:02Z</time>
      </trkpt>
      <trkpt lat="45.92636" lon="3.71987">
        <ele>1121</ele>
        <time>2017-06-04T09:43:02Z</time>
      </trkpt>
      <trkpt lat="45.92627" lon="3.71993">
        <ele>1121</ele>
        <time>2017-06-04T09:44:02Z</time>
      </trkpt>
      <trkpt lat="45.9263" lon="3.7198">
        <ele>1122</ele>
        <time>2017-06-04T09:45:02Z</time>
      </trkpt>
      <trkpt lat="45.92621" lon="3.71977">
        <ele>1124</ele>
        <time>2017-06-04T09:46:02Z</time>
      </trkpt>
      <trkpt lat="45.92629" lon="3.71971">
        <ele>1124</ele>
        <time>2017-06-04T09:47:02Z</time>
      </trkpt>
      <trkpt lat="45.92638" lon="3.71973">
        <ele>1122</ele>
        <time>2017-06-04T09:48:02Z</time>
      </trkpt>
      <trkpt lat="45.92631" lon="3.71983">
        <ele>1122</ele>
        <time>2017-06-04T09:49:02Z</time>
      </trkpt>
      <trkpt lat="45.92636" lon="3.71972">
        <ele>1123</ele>
        <time>2017-06-04T09:50:02Z</time>
      </trkpt>
      <trkpt lat="45.92627" lon="3.71977">
        <ele>1123</ele>
        <time>2017-06-04T09:51:02Z</time>
      </trkpt>
      <trkpt lat="45.92618" lon="3.71979">
        <ele>1124</ele>
        <time>2017-06-04T09:52:02Z</time>
      </trkpt>
      <trkpt lat="45.92627" lon="3.71976">
        <ele>1123</ele>
        <time>2017-06-04T09:53:02Z</time>
      </trkpt>
      <trkpt lat="45.9263" lon="3.71961">
        <ele>1125</ele>
        <time>2017-06-04T09:54:02Z</time>
      </trkpt>
      <trkpt lat="45.92626" lon="3.71973">
        <ele>1124</ele>
        <time>2017-06-04T09:55:02Z</time>
      </trkpt>
      <trkpt lat="45.92628" lon="3.71987">
        <ele>1122</ele>
        <time>2017-06-04T09:56:02Z</time>
      </trkpt>
      <trkpt lat="45.92622" lon="3.71977">
        <ele>1124</ele>
        <time>2017-06-04T09:57:02Z</time>
      </trkpt>
      <trkpt lat="45.92609" lon="3.71978">
        <ele>1125</ele>
        <time>2017-06-04T09:58:02Z</time>
      </trkpt>
      <trkpt lat="45.92619" lon="3.71979">
        <ele>1124</ele>
        <time>2017-06-04T09:59:02Z</time>
      </trkpt>
      <trkpt lat="45.92628" lon="3.71977">
        <ele>1123</ele>
        <time>2017-06-04T10:00:02Z</time>
      </trkpt>
      <trkpt lat="45.9262" lon="3.71985">
        <ele>1123</ele>
        <time>2017-06-04T10:01:02Z</time>
      </trkpt>
      <trkpt lat="45.92631" lon="3.71972">
        <ele>1123</ele>
        <time>2017-06-04T10:02:02Z</time>
      </trkpt>
      <trkpt lat="45.92628" lon="3.71951">
        <ele>1126</ele>
        <time>2017-06-04T10:03:02Z</time>
      </trkpt>
      <trkpt lat="45.92636" lon="3.71943">
        <ele>1126</ele>
        <time>2017-06-04T10:04:02Z</time>
      </trkpt>
      <trkpt lat="45.92645" lon="3.71945">
        <ele>1125</ele>
        <time>2017-06-04T10:05:02Z</time>
      </trkpt>
      <trkpt lat="45.92656" lon="3.71951">
        <ele>1123</ele>
        <time>2017-06-04T10:06:02Z</time>
      </trkpt>
      <trkpt lat="45.92664" lon="3.71957">
        <ele>1121</ele>
        <time>2017-06-04T10:07:02Z</time>
      </trkpt>
      <trkpt lat="45.92675" lon="3.71958">
        <ele>1121</ele>
        <time>2017-06-04T10:08:02Z</time>
      </trkpt>
      <trkpt lat="45.92694" lon="3.71948">
        <ele>1122</ele>
        <time>2017-06-04T10:09:02Z</time>
      </trkpt>
      <trkpt lat="45.92708" lon="3.71931">
        <ele>1124</ele>
        <time>2017-06-04T10:10:02Z</time>
      </trkpt>
      <trkpt lat="45.92713" lon="3.71919">
        <ele>1126</ele>
        <time>2017-06-04T10:11:02Z</time>
      </trkpt>
      <trkpt lat="45.92716" lon="3.71905">
        <ele>1127</ele>
        <time>2017-06-04T10:12:02Z</time>
      </trkpt>
      <trkpt lat="45.92721" lon="3.71893">
        <ele>1128</ele>
        <time>2017-06-04T10:13:02Z</time>
      </trkpt>
      <trkpt lat="45.92728" lon="3.71881">
        <ele>1129</ele>
        <time>2017-06-04T10:14:02Z</time>
      </trkpt>
      <trkpt lat="45.92737" lon="3.71875">
        <ele>1129</ele>
        <time>2017-06-04T10:15:02Z</time>
      </trkpt>
      <trkpt lat="45.9275" lon="3.71869">
        <ele>1129</ele>
        <time>2017-06-04T10:16:02Z</time>
      </trkpt>
      <trkpt lat="45.92759" lon="3.7186">
        <ele>1131</ele>
        <time>2017-06-04T10:17:02Z</time>
      </trkpt>
      <trkpt lat="45.92768" lon="3.71856">
        <ele>1132</ele>
        <time>2017-06-04T10:18:02Z</time>
      </trkpt>
      <trkpt lat="45.92776" lon="3.71848">
        <ele>1133</ele>
        <time>2017-06-04T10:19:02Z</time>
      </trkpt>
      <trkpt lat="45.92786" lon="3.71827">
        <ele>1135</ele>
        <time>2017-06-04T10:20:02Z</time>
      </trkpt>
      <trkpt lat="45.92799" lon="3.71806">
        <ele>1138</ele>
        <time>2017-06-04T10:21:02Z</time>
      </trkpt>
      <trkpt lat="45.92806" lon="3.71798">
        <ele>1139</ele>
        <time>2017-06-04T10:22:02Z</time>
      </trkpt>
      <trkpt lat="45.92816" lon="3.71795">
        <ele>1140</ele>
        <time>2017-06-04T10:23:02Z</time>
      </trkpt>
      <trkpt lat="45.92826" lon="3.71795">
        <ele>1140</ele>
        <time>2017-06-04T10:24:02Z</time>
      </trkpt>
      <trkpt lat="45.92838" lon="3.718">
        <ele>1140</ele>
        <time>2017-06-04T10:25:02Z</time>
      </trkpt>
      <trkpt lat="45.92855" lon="3.71802">
        <ele>1141</ele>
        <time>2017-06-04T10:26:02Z</time>
      </trkpt>
      <trkpt lat="45.92866" lon="3.71801">
        <ele>1141</ele>
        <time>2017-06-04T10:27:02Z</time>
      </trkpt>
      <trkpt lat="45.92875" lon="3.71796">
        <ele>1142</ele>
        <time>2017-06-04T10:28:02Z</time>
      </trkpt>
      <trkpt lat="45.92895" lon="3.71792">
        <ele>1143</ele>
        <time>2017-06-04T10:29:02Z</time>
      </trkpt>
      <trkpt lat="45.92905" lon="3.71789">
        <ele>1144</ele>
        <time>2017-06-04T10:30:02Z</time>
      </trkpt>
      <trkpt lat="45.92929" lon="3.71777">
        <ele>1146</ele>
        <time>2017-06-04T10:31:02Z</time>
      </trkpt>
      <trkpt lat="45.92938" lon="3.71771">
        <ele>1146</ele>
        <time>2017-06-04T10:32:02Z</time>
      </trkpt>
      <trkpt lat="45.92947" lon="3.71768">
        <ele>1146</ele>
        <time>2017-06-04T10:33:02Z</time>
      </trkpt>
      <trkpt lat="45.92956" lon="3.7177">
        <ele>1146</ele>
        <time>2017-06-04T10:34:02Z</time>
      </trkpt>
      <trkpt lat="45.92973" lon="3.71767">
        <ele>1146</ele>
        <time>2017-06-04T10:35:02Z</time>
      </trkpt>
      <trkpt lat="45.92974" lon="3.71783">
        <ele>1144</ele>
        <time>2017-06-04T10:36:02Z</time>
      </trkpt>
      <trkpt lat="45.92977" lon="3.7177">
        <ele>1145</ele>
        <time>2017-06-04T10:37:02Z</time>
      </trkpt>
      <trkpt lat="45.92969" lon="3.71781">
        <ele>1145</ele>
        <time>2017-06-04T10:38:02Z</time>
      </trkpt>
      <trkpt lat="45.92977" lon="3.71773">
        <ele>1145</ele>
        <time>2017-06-04T10:39:02Z</time>
      </trkpt>
      <trkpt lat="45.92985" lon="3.71765">
        <ele>1146</ele>
        <time>2017-06-04T10:40:02Z</time>
      </trkpt>
      <trkpt lat="45.92976" lon="3.71767">
        <ele>1146</ele>
        <time>2017-06-04T10:41:02Z</time>
      </trkpt>
      <trkpt lat="45.92972" lon="3.7178">
        <ele>1145</ele>
        <time>2017-06-04T10:42:02Z</time>
      </trkpt>
      <trkpt lat="45.92963" lon="3.71777">
        <ele>1145</ele>
        <time>2017-06-04T10:43:02Z</time>
      </trkpt>
      <trkpt lat="45.92972" lon="3.71772">
        <ele>1145</ele>
        <time>2017-06-04T10:44:02Z</time>
      </trkpt>
      <trkpt lat="45.92981" lon="3.71764">
        <ele>1146</ele>
        <time>2017-06-04T10:45:02Z</time>
      </trkpt>
      <trkpt lat="45.92975" lon="3.71777">
        <ele>1145</ele>
        <time>2017-06-04T10:46:02Z</time>
      </trkpt>
      <trkpt lat="45.92967" lon="3.71771">
        <ele>1146</ele>
        <time>2017-06-04T10:47:02Z</time>
      </trkpt>
      <trkpt lat="45.92961" lon="3.71781">
        <ele>1145</ele>
        <time>2017-06-04T10:48:02Z</time>
      </trkpt>
      <trkpt lat="45.92966" lon="3.71771">
        <ele>1146</ele>
        <time>2017-06-04T10:49:02Z</time>
      </trkpt>
      <trkpt lat="45.92974" lon="3.71764">
        <ele>1146</ele>
        <time>2017-06-04T10:50:02Z</time>
      </trkpt>
      <trkpt lat="45.92969" lon="3.7178">
        <ele>1145</ele>
        <time>2017-06-04T10:51:02Z</time>
      </trkpt>
      <trkpt lat="45.92957" lon="3.71785">
        <ele>1145</ele>
        <time>2017-06-04T10:52:02Z</time>
      </trkpt>
      <trkpt lat="45.92965" lon="3.71774">
        <ele>1145</ele>
        <time>2017-06-04T10:53:02Z</time>
      </trkpt>
      <trkpt lat="45.92973" lon="3.71768">
        <ele>1146</ele>
        <time>2017-06-04T10:54:02Z</time>
      </trkpt>
      <trkpt lat="45.92982" lon="3.71758">
        <ele>1146</ele>
        <time>2017-06-04T10:55:02Z</time>
      </trkpt>
      <trkpt lat="45.92986" lon="3.71746">
        <ele>1147</ele>
        <time>2017-06-04T10:56:02Z</time>
      </trkpt>
      <trkpt lat="45.92995" lon="3.71751">
        <ele>1146</ele>
        <time>2017-06-04T10:57:02Z</time>
      </trkpt>
      <trkpt lat="45.93004" lon="3.71746">
        <ele>1146</ele>
        <time>2017-06-04T10:58:02Z</time>
      </trkpt>
      <trkpt lat="45.93014" lon="3.71744">
        <ele>1146</ele>
        <time>2017-06-04T10:59:02Z</time>
      </trkpt>
      <trkpt lat="45.93024" lon="3.71739">
        <ele>1146</ele>
        <time>2017-06-04T11:00:02Z</time>
      </trkpt>
      <trkpt lat="45.93034" lon="3.71737">
        <ele>1146</ele>
        <time>2017-06-04T11:01:02Z</time>
      </trkpt>
      <trkpt lat="45.93046" lon="3.71721">
        <ele>1146</ele>
        <time>2017-06-04T11:02:02Z</time>
      </trkpt>
      <trkpt lat="45.93059" lon="3.71712">
        <ele>1146</ele>
        <time>2017-06-04T11:03:02Z</time>
      </trkpt>
      <trkpt lat="45.93056" lon="3.717">
        <ele>1148</ele>
        <time>2017-06-04T11:04:02Z</time>
      </trkpt>
      <trkpt lat="45.93062" lon="3.71712">
        <ele>1146</ele>
        <time>2017-06-04T11:05:02Z</time>
      </trkpt>
      <trkpt lat="45.93071" lon="3.71708">
        <ele>1146</ele>
        <time>2017-06-04T11:06:02Z</time>
      </trkpt>
      <trkpt lat="45.9308" lon="3.71703">
        <ele>1146</ele>
        <time>2017-06-04T11:07:02Z</time>
      </trkpt>
      <trkpt lat="45.93105" lon="3.717">
        <ele>1145</ele>
        <time>2017-06-04T11:08:02Z</time>
      </trkpt>
      <trkpt lat="45.93118" lon="3.71696">
        <ele>1144</ele>
        <time>2017-06-04T11:09:02Z</time>
      </trkpt>
      <trkpt lat="45.93132" lon="3.71694">
        <ele>1144</ele>
        <time>2017-06-04T11:10:02Z</time>
      </trkpt>
      <trkpt lat="45.93143" lon="3.71689">
        <ele>1144</ele>
        <time>2017-06-04T11:11:02Z</time>
      </trkpt>
      <trkpt lat="45.93154" lon="3.71687">
        <ele>1144</ele>
        <time>2017-06-04T11:12:02Z</time>
      </trkpt>
      <trkpt lat="45.93165" lon="3.71685">
        <ele>1143</ele>
        <time>2017-06-04T11:13:02Z</time>
      </trkpt>
      <trkpt lat="45.93174" lon="3.71685">
        <ele>1142</ele>
        <time>2017-06-04T11:14:02Z</time>
      </trkpt>
      <trkpt lat="45.93192" lon="3.71683">
        <ele>1140</ele>
        <time>2017-06-04T11:15:02Z</time>
      </trkpt>
      <trkpt lat="45.932" lon="3.71674">
        <ele>1140</ele>
        <time>2017-06-04T11:16:02Z</time>
      </trkpt>
      <trkpt lat="45.93208" lon="3.71666">
        <ele>1140</ele>
        <time>2017-06-04T11:17:02Z</time>
      </trkpt>
      <trkpt lat="45.93216" lon="3.71657">
        <ele>1140</ele>
        <time>2017-06-04T11:18:02Z</time>
      </trkpt>
      <trkpt lat="45.9322" lon="3.71644">
        <ele>1140</ele>
        <time>2017-06-04T11:19:02Z</time>
      </trkpt>
      <trkpt lat="45.93225" lon="3.71633">
        <ele>1141</ele>
        <time>2017-06-04T11:20:02Z</time>
      </trkpt>
      <trkpt lat="45.93225" lon="3.7162">
        <ele>1142</ele>
        <time>2017-06-04T11:21:02Z</time>
      </trkpt>
      <trkpt lat="45.93234" lon="3.71614">
        <ele>1142</ele>
        <time>2017-06-04T11:22:02Z</time>
      </trkpt>
      <trkpt lat="45.93238" lon="3.71602">
        <ele>1143</ele>
        <time>2017-06-04T11:23:02Z</time>
      </trkpt>
      <trkpt lat="45.93243" lon="3.7159">
        <ele>1143</ele>
        <time>2017-06-04T11:24:02Z</time>
      </trkpt>
      <trkpt lat="45.93245" lon="3.71577">
        <ele>1144</ele>
        <time>2017-06-04T11:25:02Z</time>
      </trkpt>
      <trkpt lat="45.93251" lon="3.71566">
        <ele>1145</ele>
        <time>2017-06-04T11:26:02Z</time>
      </trkpt>
      <trkpt lat="45.93259" lon="3.71558">
        <ele>1144</ele>
        <time>2017-06-04T11:27:02Z</time>
      </trkpt>
      <trkpt lat="45.93263" lon="3.71546">
        <ele>1145</ele>
        <time>2017-06-04T11:28:02Z</time>
      </trkpt>
      <trkpt lat="45.93267" lon="3.71534">
        <ele>1145</ele>
        <time>2017-06-04T11:29:02Z</time>
      </trkpt>
      <trkpt lat="45.93267" lon="3.71521">
        <ele>1147</ele>
        <time>2017-06-04T11:30:02Z</time>
      </trkpt>
      <trkpt lat="45.93274" lon="3.71511">
        <ele>1146</ele>
        <time>2017-06-04T11:31:02Z</time>
      </trkpt>
      <trkpt lat="45.9328" lon="3.715">
        <ele>1147</ele>
        <time>2017-06-04T11:32:02Z</time>
      </trkpt>
      <trkpt lat="45.93278" lon="3.71487">
        <ele>1148</ele>
        <time>2017-06-04T11:33:02Z</time>
      </trkpt>
      <trkpt lat="45.93282" lon="3.7146">
        <ele>1149</ele>
        <time>2017-06-04T11:34:02Z</time>
      </trkpt>
      <trkpt lat="45.93286" lon="3.71446">
        <ele>1149</ele>
        <time>2017-06-04T11:35:02Z</time>
      </trkpt>
      <trkpt lat="45.93296" lon="3.71423">
        <ele>1149</ele>
        <time>2017-06-04T11:36:02Z</time>
      </trkpt>
      <trkpt lat="45.93294" lon="3.7141">
        <ele>1150</ele>
        <time>2017-06-04T11:37:02Z</time>
      </trkpt>
      <trkpt lat="45.93298" lon="3.71398">
        <ele>1151</ele>
        <time>2017-06-04T11:38:02Z</time>
      </trkpt>
      <trkpt lat="45.93305" lon="3.71389">
        <ele>1150</ele>
        <time>2017-06-04T11:39:02Z</time>
      </trkpt>
      <trkpt lat="45.93315" lon="3.71378">
        <ele>1149</ele>
        <time>2017-06-04T11:40:02Z</time>
      </trkpt>
      <trkpt lat="45.93305" lon="3.71377">
        <ele>1151</ele>
        <time>2017-06-04T11:41:02Z</time>
      </trkpt>
      <trkpt lat="45.93307" lon="3.71362">
        <ele>1152</ele>
        <time>2017-06-04T11:42:02Z</time>
      </trkpt>
      <trkpt lat="45.93311" lon="3.71374">
        <ele>1150</ele>
        <time>2017-06-04T11:43:02Z</time>
      </trkpt>
      <trkpt lat="45.93304" lon="3.71361">
        <ele>1152</ele>
        <time>2017-06-04T11:44:02Z</time>
      </trkpt>
      <trkpt lat="45.9331" lon="3.71371">
        <ele>1151</ele>
        <time>2017-06-04T11:45:02Z</time>
      </trkpt>
      <trkpt lat="45.93306" lon="3.71383">
        <ele>1150</ele>
        <time>2017-06-04T11:46:02Z</time>
      </trkpt>
      <trkpt lat="45.93316" lon="3.71386">
        <ele>1149</ele>
        <time>2017-06-04T11:47:02Z</time>
      </trkpt>
      <trkpt lat="45.93324" lon="3.71379">
        <ele>1148</ele>
        <time>2017-06-04T11:48:02Z</time>
      </trkpt>
      <trkpt lat="45.93334" lon="3.71359">
        <ele>1148</ele>
        <time>2017-06-04T11:49:02Z</time>
      </trkpt>
      <trkpt lat="45.93341" lon="3.71349">
        <ele>1149</ele>
        <time>2017-06-04T11:50:02Z</time>
      </trkpt>
      <trkpt lat="45.93352" lon="3.71336">
        <ele>1149</ele>
        <time>2017-06-04T11:51:02Z</time>
      </trkpt>
      <trkpt lat="45.9336" lon="3.71329">
        <ele>1149</ele>
        <time>2017-06-04T11:52:02Z</time>
      </trkpt>
      <trkpt lat="45.93374" lon="3.71312">
        <ele>1148</ele>
        <time>2017-06-04T11:53:02Z</time>
      </trkpt>
      <trkpt lat="45.93379" lon="3.713">
        <ele>1147</ele>
        <time>2017-06-04T11:54:02Z</time>
      </trkpt>
      <trkpt lat="45.93392" lon="3.71282">
        <ele>1146</ele>
        <time>2017-06-04T11:55:02Z</time>
      </trkpt>
      <trkpt lat="45.934" lon="3.71274">
        <ele>1146</ele>
        <time>2017-06-04T11:56:02Z</time>
      </trkpt>
      <trkpt lat="45.93403" lon="3.71261">
        <ele>1146</ele>
        <time>2017-06-04T11:57:02Z</time>
      </trkpt>
      <trkpt lat="45.93409" lon="3.71252">
        <ele>1145</ele>
        <time>2017-06-04T11:58:02Z</time>
      </trkpt>
      <trkpt lat="45.93417" lon="3.71245">
        <ele>1145</ele>
        <time>2017-06-04T11:59:02Z</time>
      </trkpt>
      <trkpt lat="45.93421" lon="3.71233">
        <ele>1145</ele>
        <time>2017-06-04T12:00:02Z</time>
      </trkpt>
      <trkpt lat="45.93436" lon="3.71211">
        <ele>1146</ele>
        <time>2017-06-04T12:01:02Z</time>
      </trkpt>
      <trkpt lat="45.93447" lon="3.71207">
        <ele>1146</ele>
        <time>2017-06-04T12:02:02Z</time>
      </trkpt>
      <trkpt lat="45.93456" lon="3.71201">
        <ele>1146</ele>
        <time>2017-06-04T12:03:02Z</time>
      </trkpt>
      <trkpt lat="45.93459" lon="3.71189">
        <ele>1146</ele>
        <time>2017-06-04T12:04:02Z</time>
      </trkpt>
      <trkpt lat="45.93463" lon="3.71177">
        <ele>1147</ele>
        <time>2017-06-04T12:05:02Z</time>
      </trkpt>
      <trkpt lat="45.93461" lon="3.71164">
        <ele>1147</ele>
        <time>2017-06-04T12:06:02Z</time>
      </trkpt>
      <trkpt lat="45.93463" lon="3.71151">
        <ele>1148</ele>
        <time>2017-06-04T12:07:02Z</time>
      </trkpt>
      <trkpt lat="45.93469" lon="3.71141">
        <ele>1149</ele>
        <time>2017-06-04T12:08:02Z</time>
      </trkpt>
      <trkpt lat="45.93478" lon="3.7114">
        <ele>1150</ele>
        <time>2017-06-04T12:09:02Z</time>
      </trkpt>
      <trkpt lat="45.93476" lon="3.71126">
        <ele>1151</ele>
        <time>2017-06-04T12:10:02Z</time>
      </trkpt>
      <trkpt lat="45.93482" lon="3.71137">
        <ele>1150</ele>
        <time>2017-06-04T12:11:02Z</time>
      </trkpt>
      <trkpt lat="45.93491" lon="3.71141">
        <ele>1150</ele>
        <time>2017-06-04T12:12:02Z</time>
      </trkpt>
      <trkpt lat="45.93481" lon="3.71134">
        <ele>1150</ele>
        <time>2017-06-04T12:13:02Z</time>
      </trkpt>
      <trkpt lat="45.93472" lon="3.71134">
        <ele>1150</ele>
        <time>2017-06-04T12:14:02Z</time>
      </trkpt>
      <trkpt lat="45.93481" lon="3.7113">
        <ele>1151</ele>
        <time>2017-06-04T12:15:02Z</time>
      </trkpt>
      <trkpt lat="45.93487" lon="3.7114">
        <ele>1150</ele>
        <time>2017-06-04T12:16:02Z</time>
      </trkpt>
      <trkpt lat="45.93496" lon="3.71138">
        <ele>1150</ele>
        <time>2017-06-04T12:17:02Z</time>
      </trkpt>
      <trkpt lat="45.93487" lon="3.71142">
        <ele>1150</ele>
        <time>2017-06-04T12:18:02Z</time>
      </trkpt>
      <trkpt lat="45.93479" lon="3.71136">
        <ele>1150</ele>
        <time>2017-06-04T12:19:02Z</time>
      </trkpt>
      <trkpt lat="45.93495" lon="3.71126">
        <ele>1151</ele>
        <time>2017-06-04T12:20:02Z</time>
      </trkpt>
      <trkpt lat="45.93485" lon="3.7113">
        <ele>1151</ele>
        <time>2017-06-04T12:21:02Z</time>
      </trkpt>
      <trkpt lat="45.93477" lon="3.71139">
        <ele>1150</ele>
        <time>2017-06-04T12:22:02Z</time>
      </trkpt>
      <trkpt lat="45.93486" lon="3.71146">
        <ele>1149</ele>
        <time>2017-06-04T12:23:02Z</time>
      </trkpt>
      <trkpt lat="45.93478" lon="3.71136">
        <ele>1150</ele>
        <time>2017-06-04T12:24:02Z</time>
      </trkpt>
      <trkpt lat="45.93486" lon="3.71141">
        <ele>1150</ele>
        <time>2017-06-04T12:25:02Z</time>
      </trkpt>
      <trkpt lat="45.93478" lon="3.71136">
        <ele>1150</ele>
        <time>2017-06-04T12:26:02Z</time>
      </trkpt>
      <trkpt lat="45.93487" lon="3.71136">
        <ele>1150</ele>
        <time>2017-06-04T12:27:02Z</time>
      </trkpt>
      <trkpt lat="45.93473" lon="3.71133">
        <ele>1150</ele>
        <time>2017-06-04T12:28:02Z</time>
      </trkpt>
      <trkpt lat="45.93477" lon="3.7112">
        <ele>1152</ele>
        <time>2017-06-04T12:29:02Z</time>
      </trkpt>
      <trkpt lat="45.9349" lon="3.71118">
        <ele>1152</ele>
        <time>2017-06-04T12:30:02Z</time>
      </trkpt>
      <trkpt lat="45.93487" lon="3.71105">
        <ele>1153</ele>
        <time>2017-06-04T12:31:02Z</time>
      </trkpt>
      <trkpt lat="45.93491" lon="3.71093">
        <ele>1155</ele>
        <time>2017-06-04T12:32:02Z</time>
      </trkpt>
      <trkpt lat="45.93494" lon="3.71074">
        <ele>1157</ele>
        <time>2017-06-04T12:33:02Z</time>
      </trkpt>
      <trkpt lat="45.93503" lon="3.71067">
        <ele>1158</ele>
        <time>2017-06-04T12:34:02Z</time>
      </trkpt>
      <trkpt lat="45.9351" lon="3.71054">
        <ele>1160</ele>
        <time>2017-06-04T12:35:02Z</time>
      </trkpt>
      <trkpt lat="45.93506" lon="3.71041">
        <ele>1161</ele>
        <time>2017-06-04T12:36:02Z</time>
      </trkpt>
      <trkpt lat="45.93498" lon="3.71033">
        <ele>1161</ele>
        <time>2017-06-04T12:37:02Z</time>
      </trkpt>
      <trkpt lat="45.93482" lon="3.7102">
        <ele>1162</ele>
        <time>2017-06-04T12:38:02Z</time>
      </trkpt>
      <trkpt lat="45.9347" lon="3.71004">
        <ele>1162</ele>
        <time>2017-06-04T12:39:02Z</time>
      </trkpt>
      <trkpt lat="45.93461" lon="3.71006">
        <ele>1161</ele>
        <time>2017-06-04T12:40:02Z</time>
      </trkpt>
      <trkpt lat="45.9347" lon="3.71004">
        <ele>1162</ele>
        <time>2017-06-04T12:41:02Z</time>
      </trkpt>
      <trkpt lat="45.93477" lon="3.70995">
        <ele>1163</ele>
        <time>2017-06-04T12:42:02Z</time>
      </trkpt>
      <trkpt lat="45.93485" lon="3.70989">
        <ele>1165</ele>
        <time>2017-06-04T12:43:02Z</time>
      </trkpt>
      <trkpt lat="45.93489" lon="3.70973">
        <ele>1166</ele>
        <time>2017-06-04T12:44:02Z</time>
      </trkpt>
      <trkpt lat="45.93484" lon="3.70962">
        <ele>1166</ele>
        <time>2017-06-04T12:45:02Z</time>
      </trkpt>
      <trkpt lat="45.93475" lon="3.70958">
        <ele>1166</ele>
        <time>2017-06-04T12:46:02Z</time>
      </trkpt>
      <trkpt lat="45.93466" lon="3.70955">
        <ele>1166</ele>
        <time>2017-06-04T12:47:02Z</time>
      </trkpt>
      <trkpt lat="45.93459" lon="3.70946">
        <ele>1166</ele>
        <time>2017-06-04T12:48:02Z</time>
      </trkpt>
      <trkpt lat="45.93468" lon="3.70939">
        <ele>1167</ele>
        <time>2017-06-04T12:49:02Z</time>
      </trkpt>
      <trkpt lat="45.93458" lon="3.70936">
        <ele>1166</ele>
        <time>2017-06-04T12:50:02Z</time>
      </trkpt>
      <trkpt lat="45.93454" lon="3.70925">
        <ele>1167</ele>
        <time>2017-06-04T12:51:02Z</time>
      </trkpt>
      <trkpt lat="45.93442" lon="3.7092">
        <ele>1167</ele>
        <time>2017-06-04T12:52:02Z</time>
      </trkpt>
      <trkpt lat="45.93437" lon="3.70908">
        <ele>1167</ele>
        <time>2017-06-04T12:53:02Z</time>
      </trkpt>
      <trkpt lat="45.93431" lon="3.70898">
        <ele>1168</ele>
        <time>2017-06-04T12:54:02Z</time>
      </trkpt>
      <trkpt lat="45.93422" lon="3.70895">
        <ele>1167</ele>
        <time>2017-06-04T12:55:02Z</time>
      </trkpt>
      <trkpt lat="45.93404" lon="3.70888">
        <ele>1168</ele>
        <time>2017-06-04T12:56:02Z</time>
      </trkpt>
      <trkpt lat="45.93395" lon="3.70891">
        <ele>1168</ele>
        <time>2017-06-04T12:57:02Z</time>
      </trkpt>
      <trkpt lat="45.93377" lon="3.70899">
        <ele>1167</ele>
        <time>2017-06-04T12:58:02Z</time>
      </trkpt>
      <trkpt lat="45.93369" lon="3.70907">
        <ele>1166</ele>
        <time>2017-06-04T12:59:02Z</time>
      </trkpt>
      <trkpt lat="45.93359" lon="3.70911">
        <ele>1166</ele>
        <time>2017-06-04T13:00:02Z</time>
      </trkpt>
      <trkpt lat="45.93352" lon="3.7092">
        <ele>1165</ele>
        <time>2017-06-04T13:01:02Z</time>
      </trkpt>
      <trkpt lat="45.93314" lon="3.70931">
        <ele>1164</ele>
        <time>2017-06-04T13:02:02Z</time>
      </trkpt>
      <trkpt lat="45.93305" lon="3.70929">
        <ele>1165</ele>
        <time>2017-06-04T13:03:02Z</time>
      </trkpt>
      <trkpt lat="45.93296" lon="3.70926">
        <ele>1166</ele>
        <time>2017-06-04T13:04:02Z</time>
      </trkpt>
      <trkpt lat="45.93286" lon="3.70926">
        <ele>1166</ele>
        <time>2017-06-04T13:05:02Z</time>
      </trkpt>
      <trkpt lat="45.93277" lon="3.70922">
        <ele>1167</ele>
        <time>2017-06-04T13:06:02Z</time>
      </trkpt>
      <trkpt lat="45.93268" lon="3.70914">
        <ele>1169</ele>
        <time>2017-06-04T13:07:02Z</time>
      </trkpt>
      <trkpt lat="45.93248" lon="3.70906">
        <ele>1171</ele>
        <time>2017-06-04T13:08:02Z</time>
      </trkpt>
      <trkpt lat="45.93239" lon="3.70905">
        <ele>1171</ele>
        <time>2017-06-04T13:09:02Z</time>
      </trkpt>
      <trkpt lat="45.9322" lon="3.70899">
        <ele>1172</ele>
        <time>2017-06-04T13:10:02Z</time>
      </trkpt>
      <trkpt lat="45.93211" lon="3.70898">
        <ele>1172</ele>
        <time>2017-06-04T13:11:02Z</time>
      </trkpt>
      <trkpt lat="45.93202" lon="3.70897">
        <ele>1172</ele>
        <time>2017-06-04T13:12:02Z</time>
      </trkpt>
      <trkpt lat="45.93192" lon="3.70892">
        <ele>1173</ele>
        <time>2017-06-04T13:13:02Z</time>
      </trkpt>
      <trkpt lat="45.93182" lon="3.7089">
        <ele>1173</ele>
        <time>2017-06-04T13:14:02Z</time>
      </trkpt>
      <trkpt lat="45.93172" lon="3.70891">
        <ele>1173</ele>
        <time>2017-06-04T13:15:02Z</time>
      </trkpt>
      <trkpt lat="45.93161" lon="3.70909">
        <ele>1171</ele>
        <time>2017-06-04T13:16:02Z</time>
      </trkpt>
      <trkpt lat="45.93171" lon="3.70909">
        <ele>1171</ele>
        <time>2017-06-04T13:17:02Z</time>
      </trkpt>
      <trkpt lat="45.93163" lon="3.709">
        <ele>1172</ele>
        <time>2017-06-04T13:18:02Z</time>
      </trkpt>
      <trkpt lat="45.93154" lon="3.70897">
        <ele>1173</ele>
        <time>2017-06-04T13:19:02Z</time>
      </trkpt>
      <trkpt lat="45.93135" lon="3.70897">
        <ele>1173</ele>
        <time>2017-06-04T13:20:02Z</time>
      </trkpt>
      <trkpt lat="45.93126" lon="3.70902">
        <ele>1173</ele>
        <time>2017-06-04T13:21:02Z</time>
      </trkpt>
      <trkpt lat="45.93108" lon="3.7091">
        <ele>1172</ele>
        <time>2017-06-04T13:22:02Z</time>
      </trkpt>
      <trkpt lat="45.93096" lon="3.70912">
        <ele>1172</ele>
        <time>2017-06-04T13:23:02Z</time>
      </trkpt>
      <trkpt lat="45.93083" lon="3.7091">
        <ele>1173</ele>
        <time>2017-06-04T13:24:02Z</time>
      </trkpt>
      <trkpt lat="45.93074" lon="3.70913">
        <ele>1172</ele>
        <time>2017-06-04T13:25:02Z</time>
      </trkpt>
      <trkpt lat="45.93064" lon="3.70913">
        <ele>1173</ele>
        <time>2017-06-04T13:26:02Z</time>
      </trkpt>
      <trkpt lat="45.93053" lon="3.70912">
        <ele>1173</ele>
        <time>2017-06-04T13:27:02Z</time>
      </trkpt>
      <trkpt lat="45.93044" lon="3.70918">
        <ele>1172</ele>
        <time>2017-06-04T13:28:02Z</time>
      </trkpt>
      <trkpt lat="45.93035" lon="3.70924">
        <ele>1172</ele>
        <time>2017-06-04T13:29:02Z</time>
      </trkpt>
      <trkpt lat="45.93025" lon="3.70923">
        <ele>1172</ele>
        <time>2017-06-04T13:30:02Z</time>
      </trkpt>
      <trkpt lat="45.93006" lon="3.70912">
        <ele>1173</ele>
        <time>2017-06-04T13:31:02Z</time>
      </trkpt>
      <trkpt lat="45.92997" lon="3.70909">
        <ele>1173</ele>
        <time>2017-06-04T13:32:02Z</time>
      </trkpt>
      <trkpt lat="45.92988" lon="3.70905">
        <ele>1174</ele>
        <time>2017-06-04T13:33:02Z</time>
      </trkpt>
      <trkpt lat="45.92978" lon="3.70902">
        <ele>1174</ele>
        <time>2017-06-04T13:34:02Z</time>
      </trkpt>
      <trkpt lat="45.92969" lon="3.70897">
        <ele>1174</ele>
        <time>2017-06-04T13:35:02Z</time>
      </trkpt>
      <trkpt lat="45.92961" lon="3.70891">
        <ele>1174</ele>
        <time>2017-06-04T13:36:02Z</time>
      </trkpt>
      <trkpt lat="45.92954" lon="3.70882">
        <ele>1175</ele>
        <time>2017-06-04T13:37:02Z</time>
      </trkpt>
      <trkpt lat="45.92947" lon="3.70873">
        <ele>1175</ele>
        <time>2017-06-04T13:38:02Z</time>
      </trkpt>
      <trkpt lat="45.92941" lon="3.70861">
        <ele>1175</ele>
        <time>2017-06-04T13:39:02Z</time>
      </trkpt>
      <trkpt lat="45.92924" lon="3.70846">
        <ele>1176</ele>
        <time>2017-06-04T13:40:02Z</time>
      </trkpt>
      <trkpt lat="45.92915" lon="3.70848">
        <ele>1176</ele>
        <time>2017-06-04T13:41:02Z</time>
      </trkpt>
      <trkpt lat="45.9292" lon="3.70859">
        <ele>1175</ele>
        <time>2017-06-04T13:42:02Z</time>
      </trkpt>
      <trkpt lat="45.9291" lon="3.70849">
        <ele>1176</ele>
        <time>2017-06-04T13:43:02Z</time>
      </trkpt>
      <trkpt lat="45.92891" lon="3.70848">
        <ele>1177</ele>
        <time>2017-06-04T13:44:02Z</time>
      </trkpt>
      <trkpt lat="45.92881" lon="3.70842">
        <ele>1178</ele>
        <time>2017-06-04T13:45:02Z</time>
      </trkpt>
      <trkpt lat="45.92879" lon="3.70828">
        <ele>1178</ele>
        <time>2017-06-04T13:46:02Z</time>
      </trkpt>
      <trkpt lat="45.92873" lon="3.70803">
        <ele>1177</ele>
        <time>2017-06-04T13:47:02Z</time>
      </trkpt>
      <trkpt lat="45.92871" lon="3.7079">
        <ele>1177</ele>
        <time>2017-06-04T13:48:02Z</time>
      </trkpt>
      <trkpt lat="45.92867" lon="3.70775">
        <ele>1176</ele>
        <time>2017-06-04T13:49:02Z</time>
      </trkpt>
      <trkpt lat="45.92866" lon="3.70761">
        <ele>1176</ele>
        <time>2017-06-04T13:50:02Z</time>
      </trkpt>
      <trkpt lat="45.92865" lon="3.70748">
        <ele>1175</ele>
        <time>2017-06-04T13:51:02Z</time>
      </trkpt>
      <trkpt lat="45.92865" lon="3.70734">
        <ele>1175</ele>
        <time>2017-06-04T13:52:02Z</time>
      </trkpt>
      <trkpt lat="45.92868" lon="3.70721">
        <ele>1174</ele>
        <time>2017-06-04T13:53:02Z</time>
      </trkpt>
      <trkpt lat="45.92867" lon="3.70707">
        <ele>1174</ele>
        <time>2017-06-04T13:54:02Z</time>
      </trkpt>
      <trkpt lat="45.9286" lon="3.70696">
        <ele>1173</ele>
        <time>2017-06-04T13:55:02Z</time>
      </trkpt>
      <trkpt lat="45.92854" lon="3.70685">
        <ele>1173</ele>
        <time>2017-06-04T13:56:02Z</time>
      </trkpt>
      <trkpt lat="45.9285" lon="3.70672">
        <ele>1172</ele>
        <time>2017-06-04T13:57:02Z</time>
      </trkpt>
      <trkpt lat="45.92846" lon="3.7066">
        <ele>1172</ele>
        <time>2017-06-04T13:58:02Z</time>
      </trkpt>
      <trkpt lat="45.92843" lon="3.70647">
        <ele>1171</ele>
        <time>2017-06-04T13:59:02Z</time>
      </trkpt>
      <trkpt lat="45.92842" lon="3.70634">
        <ele>1171</ele>
        <time>2017-06-04T14:00:02Z</time>
      </trkpt>
      <trkpt lat="45.92839" lon="3.70621">
        <ele>1170</ele>
        <time>2017-06-04T14:01:02Z</time>
      </trkpt>
      <trkpt lat="45.92836" lon="3.70608">
        <ele>1169</ele>
        <time>2017-06-04T14:02:02Z</time>
      </trkpt>
      <trkpt lat="45.92833" lon="3.70595">
        <ele>1169</ele>
        <time>2017-06-04T14:03:02Z</time>
      </trkpt>
      <trkpt lat="45.92833" lon="3.70568">
        <ele>1168</ele>
        <time>2017-06-04T14:04:02Z</time>
      </trkpt>
      <trkpt lat="45.92829" lon="3.70556">
        <ele>1167</ele>
        <time>2017-06-04T14:05:02Z</time>
      </trkpt>
      <trkpt lat="45.92824" lon="3.70542">
        <ele>1167</ele>
        <time>2017-06-04T14:06:02Z</time>
      </trkpt>
      <trkpt lat="45.92822" lon="3.70528">
        <ele>1166</ele>
        <time>2017-06-04T14:07:02Z</time>
      </trkpt>
      <trkpt lat="45.92821" lon="3.70502">
        <ele>1166</ele>
        <time>2017-06-04T14:08:02Z</time>
      </trkpt>
      <trkpt lat="45.9282" lon="3.70489">
        <ele>1166</ele>
        <time>2017-06-04T14:09:02Z</time>
      </trkpt>
      <trkpt lat="45.92827" lon="3.7048">
        <ele>1166</ele>
        <time>2017-06-04T14:10:02Z</time>
      </trkpt>
      <trkpt lat="45.92826" lon="3.70452">
        <ele>1166</ele>
        <time>2017-06-04T14:11:02Z</time>
      </trkpt>
      <trkpt lat="45.92823" lon="3.70439">
        <ele>1166</ele>
        <time>2017-06-04T14:12:02Z</time>
      </trkpt>
      <trkpt lat="45.92819" lon="3.70426">
        <ele>1166</ele>
        <time>2017-06-04T14:13:02Z</time>
      </trkpt>
      <trkpt lat="45.92819" lon="3.70399">
        <ele>1166</ele>
        <time>2017-06-04T14:14:02Z</time>
      </trkpt>
      <trkpt lat="45.92825" lon="3.70389">
        <ele>1167</ele>
        <time>2017-06-04T14:15:02Z</time>
      </trkpt>
      <trkpt lat="45.92823" lon="3.70373">
        <ele>1167</ele>
        <time>2017-06-04T14:16:02Z</time>
      </trkpt>
      <trkpt lat="45.92821" lon="3.70359">
        <ele>1167</ele>
        <time>2017-06-04T14:17:02Z</time>
      </trkpt>
      <trkpt lat="45.92824" lon="3.70347">
        <ele>1168</ele>
        <time>2017-06-04T14:18:02Z</time>
      </trkpt>
      <trkpt lat="45.92829" lon="3.70322">
        <ele>1169</ele>
        <time>2017-06-04T14:19:02Z</time>
      </trkpt>
      <trkpt lat="45.92833" lon="3.70303">
        <ele>1170</ele>
        <time>2017-06-04T14:20:02Z</time>
      </trkpt>
      <trkpt lat="45.92835" lon="3.70287">
        <ele>1171</ele>
        <time>2017-06-04T14:21:02Z</time>
      </trkpt>
      <trkpt lat="45.92843" lon="3.70255">
        <ele>1174</ele>
        <time>2017-06-04T14:22:02Z</time>
      </trkpt>
      <trkpt lat="45.92848" lon="3.70241">
        <ele>1176</ele>
        <time>2017-06-04T14:23:02Z</time>
      </trkpt>
      <trkpt lat="45.92851" lon="3.70228">
        <ele>1176</ele>
        <time>2017-06-04T14:24:02Z</time>
      </trkpt>
      <trkpt lat="45.92854" lon="3.70214">
        <ele>1177</ele>
        <time>2017-06-04T14:25:02Z</time>
      </trkpt>
      <trkpt lat="45.92853" lon="3.702">
        <ele>1177</ele>
        <time>2017-06-04T14:26:02Z</time>
      </trkpt>
      <trkpt lat="45.92857" lon="3.70185">
        <ele>1178</ele>
        <time>2017-06-04T14:27:02Z</time>
      </trkpt>
      <trkpt lat="45.92864" lon="3.70167">
        <ele>1180</ele>
        <time>2017-06-04T14:28:02Z</time>
      </trkpt>
      <trkpt lat="45.9287" lon="3.70155">
        <ele>1182</ele>
        <time>2017-06-04T14:29:02Z</time>
      </trkpt>
      <trkpt lat="45.92873" lon="3.70141">
        <ele>1184</ele>
        <time>2017-06-04T14:30:02Z</time>
      </trkpt>
      <trkpt lat="45.92875" lon="3.70129">
        <ele>1185</ele>
        <time>2017-06-04T14:31:02Z</time>
      </trkpt>
      <trkpt lat="45.92875" lon="3.70115">
        <ele>1185</ele>
        <time>2017-06-04T14:32:02Z</time>
      </trkpt>
      <trkpt lat="45.92875" lon="3.70101">
        <ele>1185</ele>
        <time>2017-06-04T14:33:02Z</time>
      </trkpt>
      <trkpt lat="45.92878" lon="3.70087">
        <ele>1187</ele>
        <time>2017-06-04T14:34:02Z</time>
      </trkpt>
      <trkpt lat="45.92877" lon="3.70073">
        <ele>1188</ele>
        <time>2017-06-04T14:35:02Z</time>
      </trkpt>
      <trkpt lat="45.92879" lon="3.7006">
        <ele>1190</ele>
        <time>2017-06-04T14:36:02Z</time>
      </trkpt>
      <trkpt lat="45.92879" lon="3.70042">
        <ele>1192</ele>
        <time>2017-06-04T14:37:02Z</time>
      </trkpt>
      <trkpt lat="45.92874" lon="3.70015">
        <ele>1194</ele>
        <time>2017-06-04T14:38:02Z</time>
      </trkpt>
      <trkpt lat="45.92871" lon="3.70001">
        <ele>1195</ele>
        <time>2017-06-04T14:39:02Z</time>
      </trkpt>
      <trkpt lat="45.92875" lon="3.69986">
        <ele>1198</ele>
        <time>2017-06-04T14:40:02Z</time>
      </trkpt>
      <trkpt lat="45.92875" lon="3.69973">
        <ele>1200</ele>
        <time>2017-06-04T14:41:02Z</time>
      </trkpt>
      <trkpt lat="45.92867" lon="3.69966">
        <ele>1199</ele>
        <time>2017-06-04T14:42:02Z</time>
      </trkpt>
      <trkpt lat="45.9286" lon="3.69956">
        <ele>1199</ele>
        <time>2017-06-04T14:43:02Z</time>
      </trkpt>
      <trkpt lat="45.92855" lon="3.69945">
        <ele>1199</ele>
        <time>2017-06-04T14:44:02Z</time>
      </trkpt>
      <trkpt lat="45.9285" lon="3.69933">
        <ele>1200</ele>
        <time>2017-06-04T14:45:02Z</time>
      </trkpt>
      <trkpt lat="45.92844" lon="3.69923">
        <ele>1200</ele>
        <time>2017-06-04T14:46:02Z</time>
      </trkpt>
      <trkpt lat="45.92839" lon="3.69911">
        <ele>1200</ele>
        <time>2017-06-04T14:47:02Z</time>
      </trkpt>
      <trkpt lat="45.92832" lon="3.69902">
        <ele>1199</ele>
        <time>2017-06-04T14:48:02Z</time>
      </trkpt>
      <trkpt lat="45.92824" lon="3.69894">
        <ele>1198</ele>
        <time>2017-06-04T14:49:02Z</time>
      </trkpt>
      <trkpt lat="45.92832" lon="3.69887">
        <ele>1201</ele>
        <time>2017-06-04T14:50:02Z</time>
      </trkpt>
      <trkpt lat="45.92825" lon="3.69878">
        <ele>1200</ele>
        <time>2017-06-04T14:51:02Z</time>
      </trkpt>
      <trkpt lat="45.92821" lon="3.69836">
        <ele>1204</ele>
        <time>2017-06-04T14:52:02Z</time>
      </trkpt>
      <trkpt lat="45.92821" lon="3.69822">
        <ele>1204</ele>
        <time>2017-06-04T14:53:02Z</time>
      </trkpt>
      <trkpt lat="45.92822" lon="3.69809">
        <ele>1205</ele>
        <time>2017-06-04T14:54:02Z</time>
      </trkpt>
      <trkpt lat="45.92831" lon="3.69804">
        <ele>1207</ele>
        <time>2017-06-04T14:55:02Z</time>
      </trkpt>
      <trkpt lat="45.9284" lon="3.69802">
        <ele>1209</ele>
        <time>2017-06-04T14:56:02Z</time>
      </trkpt>
      <trkpt lat="45.92847" lon="3.69811">
        <ele>1210</ele>
        <time>2017-06-04T14:57:02Z</time>
      </trkpt>
      <trkpt lat="45.92852" lon="3.69824">
        <ele>1211</ele>
        <time>2017-06-04T14:58:02Z</time>
      </trkpt>
      <trkpt lat="45.92856" lon="3.69836">
        <ele>1211</ele>
        <time>2017-06-04T14:59:02Z</time>
      </trkpt>
      <trkpt lat="45.92859" lon="3.69849">
        <ele>1210</ele>
        <time>2017-06-04T15:00:02Z</time>
      </trkpt>
      <trkpt lat="45.92868" lon="3.69855">
        <ele>1212</ele>
        <time>2017-06-04T15:01:02Z</time>
      </trkpt>
      <trkpt lat="45.92877" lon="3.6986">
        <ele>1214</ele>
        <time>2017-06-04T15:02:02Z</time>
      </trkpt>
      <trkpt lat="45.92886" lon="3.69867">
        <ele>1215</ele>
        <time>2017-06-04T15:03:02Z</time>
      </trkpt>
      <trkpt lat="45.92894" lon="3.69874">
        <ele>1216</ele>
        <time>2017-06-04T15:04:02Z</time>
      </trkpt>
      <trkpt lat="45.92899" lon="3.69885">
        <ele>1217</ele>
        <time>2017-06-04T15:05:02Z</time>
      </trkpt>
      <trkpt lat="45.92908" lon="3.69888">
        <ele>1218</ele>
        <time>2017-06-04T15:06:02Z</time>
      </trkpt>
      <trkpt lat="45.92917" lon="3.69884">
        <ele>1221</ele>
        <time>2017-06-04T15:07:02Z</time>
      </trkpt>
      <trkpt lat="45.92925" lon="3.69891">
        <ele>1222</ele>
        <time>2017-06-04T15:08:02Z</time>
      </trkpt>
      <trkpt lat="45.92935" lon="3.69897">
        <ele>1223</ele>
        <time>2017-06-04T15:09:02Z</time>
      </trkpt>
      <trkpt lat="45.92941" lon="3.69906">
        <ele>1223</ele>
        <time>2017-06-04T15:10:02Z</time>
      </trkpt>
      <trkpt lat="45.92947" lon="3.69916">
        <ele>1223</ele>
        <time>2017-06-04T15:11:02Z</time>
      </trkpt>
      <trkpt lat="45.92957" lon="3.69922">
        <ele>1224</ele>
        <time>2017-06-04T15:12:02Z</time>
      </trkpt>
      <trkpt lat="45.92964" lon="3.69931">
        <ele>1225</ele>
        <time>2017-06-04T15:13:02Z</time>
      </trkpt>
      <trkpt lat="45.9297" lon="3.6994">
        <ele>1225</ele>
        <time>2017-06-04T15:14:02Z</time>
      </trkpt>
      <trkpt lat="45.92979" lon="3.69944">
        <ele>1226</ele>
        <time>2017-06-04T15:15:02Z</time>
      </trkpt>
      <trkpt lat="45.92986" lon="3.69955">
        <ele>1227</ele>
        <time>2017-06-04T15:16:02Z</time>
      </trkpt>
      <trkpt lat="45.92992" lon="3.69965">
        <ele>1227</ele>
        <time>2017-06-04T15:17:02Z</time>
      </trkpt>
      <trkpt lat="45.93" lon="3.69972">
        <ele>1229</ele>
        <time>2017-06-04T15:18:02Z</time>
      </trkpt>
      <trkpt lat="45.93009" lon="3.69977">
        <ele>1229</ele>
        <time>2017-06-04T15:19:02Z</time>
      </trkpt>
      <trkpt lat="45.93019" lon="3.6998">
        <ele>1230</ele>
        <time>2017-06-04T15:20:02Z</time>
      </trkpt>
      <trkpt lat="45.93033" lon="3.69978">
        <ele>1231</ele>
        <time>2017-06-04T15:21:02Z</time>
      </trkpt>
      <trkpt lat="45.93042" lon="3.69975">
        <ele>1232</ele>
        <time>2017-06-04T15:22:02Z</time>
      </trkpt>
      <trkpt lat="45.93052" lon="3.69975">
        <ele>1233</ele>
        <time>2017-06-04T15:23:02Z</time>
      </trkpt>
      <trkpt lat="45.93062" lon="3.6998">
        <ele>1233</ele>
        <time>2017-06-04T15:24:02Z</time>
      </trkpt>
      <trkpt lat="45.93071" lon="3.69983">
        <ele>1234</ele>
        <time>2017-06-04T15:25:02Z</time>
      </trkpt>
      <trkpt lat="45.93081" lon="3.6998">
        <ele>1235</ele>
        <time>2017-06-04T15:26:02Z</time>
      </trkpt>
      <trkpt lat="45.93094" lon="3.69973">
        <ele>1235</ele>
        <time>2017-06-04T15:27:02Z</time>
      </trkpt>
      <trkpt lat="45.931" lon="3.69962">
        <ele>1235</ele>
        <time>2017-06-04T15:28:02Z</time>
      </trkpt>
      <trkpt lat="45.93105" lon="3.69941">
        <ele>1235</ele>
        <time>2017-06-04T15:29:02Z</time>
      </trkpt>
      <trkpt lat="45.93111" lon="3.69931">
        <ele>1235</ele>
        <time>2017-06-04T15:30:02Z</time>
      </trkpt>
      <trkpt lat="45.93119" lon="3.69922">
        <ele>1235</ele>
        <time>2017-06-04T15:31:02Z</time>
      </trkpt>
      <trkpt lat="45.93125" lon="3.69912">
        <ele>1235</ele>
        <time>2017-06-04T15:32:02Z</time>
      </trkpt>
      <trkpt lat="45.93126" lon="3.69898">
        <ele>1236</ele>
        <time>2017-06-04T15:33:02Z</time>
      </trkpt>
      <trkpt lat="45.93126" lon="3.69884">
        <ele>1237</ele>
        <time>2017-06-04T15:34:02Z</time>
      </trkpt>
      <trkpt lat="45.93128" lon="3.69869">
        <ele>1238</ele>
        <time>2017-06-04T15:35:02Z</time>
      </trkpt>
      <trkpt lat="45.93126" lon="3.69853">
        <ele>1239</ele>
        <time>2017-06-04T15:36:02Z</time>
      </trkpt>
      <trkpt lat="45.93126" lon="3.6984">
        <ele>1240</ele>
        <time>2017-06-04T15:37:02Z</time>
      </trkpt>
      <trkpt lat="45.93123" lon="3.69827">
        <ele>1241</ele>
        <time>2017-06-04T15:38:02Z</time>
      </trkpt>
      <trkpt lat="45.93117" lon="3.69815">
        <ele>1243</ele>
        <time>2017-06-04T15:39:02Z</time>
      </trkpt>
      <trkpt lat="45.93111" lon="3.69805">
        <ele>1245</ele>
        <time>2017-06-04T15:40:02Z</time>
      </trkpt>
      <trkpt lat="45.93106" lon="3.69788">
        <ele>1247</ele>
        <time>2017-06-04T15:41:02Z</time>
      </trkpt>
      <trkpt lat="45.93107" lon="3.69775">
        <ele>1249</ele>
        <time>2017-06-04T15:42:02Z</time>
      </trkpt>
      <trkpt lat="45.93105" lon="3.69762">
        <ele>1251</ele>
        <time>2017-06-04T15:43:02Z</time>
      </trkpt>
      <trkpt lat="45.93105" lon="3.69749">
        <ele>1252</ele>
        <time>2017-06-04T15:44:02Z</time>
      </trkpt>
      <trkpt lat="45.93101" lon="3.69737">
        <ele>1254</ele>
        <time>2017-06-04T15:45:02Z</time>
      </trkpt>
      <trkpt lat="45.93092" lon="3.69732">
        <ele>1255</ele>
        <time>2017-06-04T15:46:02Z</time>
      </trkpt>
      <trkpt lat="45.93084" lon="3.69725">
        <ele>1257</ele>
        <time>2017-06-04T15:47:02Z</time>
      </trkpt>
      <trkpt lat="45.93078" lon="3.69715">
        <ele>1258</ele>
        <time>2017-06-04T15:48:02Z</time>
      </trkpt>
      <trkpt lat="45.93063" lon="3.69696">
        <ele>1260</ele>
        <time>2017-06-04T15:49:02Z</time>
      </trkpt>
      <trkpt lat="45.93061" lon="3.69683">
        <ele>1261</ele>
        <time>2017-06-04T15:50:02Z</time>
      </trkpt>
      <trkpt lat="45.93054" lon="3.69672">
        <ele>1262</ele>
        <time>2017-06-04T15:51:02Z</time>
      </trkpt>
      <trkpt lat="45.93045" lon="3.69672">
        <ele>1262</ele>
        <time>2017-06-04T15:52:02Z</time>
      </trkpt>
      <trkpt lat="45.93037" lon="3.69659">
        <ele>1263</ele>
        <time>2017-06-04T15:53:02Z</time>
      </trkpt>
      <trkpt lat="45.93037" lon="3.69642">
        <ele>1265</ele>
        <time>2017-06-04T15:54:02Z</time>
      </trkpt>
      <trkpt lat="45.93044" lon="3.69631">
        <ele>1267</ele>
        <time>2017-06-04T15:55:02Z</time>
      </trkpt>
      <trkpt lat="45.93045" lon="3.69617">
        <ele>1269</ele>
        <time>2017-06-04T15:56:02Z</time>
      </trkpt>
      <trkpt lat="45.93047" lon="3.69604">
        <ele>1270</ele>
        <time>2017-06-04T15:57:02Z</time>
      </trkpt>
      <trkpt lat="45.93049" lon="3.69591">
        <ele>1272</ele>
        <time>2017-06-04T15:58:02Z</time>
      </trkpt>
      <trkpt lat="45.9305" lon="3.69577">
        <ele>1274</ele>
        <time>2017-06-04T15:59:02Z</time>
      </trkpt>
      <trkpt lat="45.93052" lon="3.69563">
        <ele>1275</ele>
        <time>2017-06-04T16:00:02Z</time>
      </trkpt>
      <trkpt lat="45.93051" lon="3.69531">
        <ele>1277</ele>
        <time>2017-06-04T16:01:02Z</time>
      </trkpt>
      <trkpt lat="45.93048" lon="3.69519">
        <ele>1278</ele>
        <time>2017-06-04T16:02:02Z</time>
      </trkpt>
      <trkpt lat="45.93052" lon="3.69506">
        <ele>1279</ele>
        <time>2017-06-04T16:03:02Z</time>
      </trkpt>
      <trkpt lat="45.93053" lon="3.69493">
        <ele>1280</ele>
        <time>2017-06-04T16:04:02Z</time>
      </trkpt>
      <trkpt lat="45.93056" lon="3.69481">
        <ele>1280</ele>
        <time>2017-06-04T16:05:02Z</time>
      </trkpt>
      <trkpt lat="45.93054" lon="3.69467">
        <ele>1280</ele>
        <time>2017-06-04T16:06:02Z</time>
      </trkpt>
      <trkpt lat="45.93079" lon="3.69434">
        <ele>1284</ele>
        <time>2017-06-04T16:07:02Z</time>
      </trkpt>
      <trkpt lat="45.93085" lon="3.69424">
        <ele>1285</ele>
        <time>2017-06-04T16:08:02Z</time>
      </trkpt>
      <trkpt lat="45.93088" lon="3.69411">
        <ele>1285</ele>
        <time>2017-06-04T16:09:02Z</time>
      </trkpt>
      <trkpt lat="45.9308" lon="3.69419">
        <ele>1285</ele>
        <time>2017-06-04T16:10:02Z</time>
      </trkpt>
      <trkpt lat="45.93075" lon="3.69431">
        <ele>1284</ele>
        <time>2017-06-04T16:11:02Z</time>
      </trkpt>
      <trkpt lat="45.93068" lon="3.69444">
        <ele>1282</ele>
        <time>2017-06-04T16:12:02Z</time>
      </trkpt>
      <trkpt lat="45.93063" lon="3.69456">
        <ele>1282</ele>
        <time>2017-06-04T16:13:02Z</time>
      </trkpt>
      <trkpt lat="45.93059" lon="3.69469">
        <ele>1281</ele>
        <time>2017-06-04T16:14:02Z</time>
      </trkpt>
      <trkpt lat="45.93054" lon="3.6949">
        <ele>1280</ele>
        <time>2017-06-04T16:15:02Z</time>
      </trkpt>
      <trkpt lat="45.93051" lon="3.69503">
        <ele>1279</ele>
        <time>2017-06-04T16:16:02Z</time>
      </trkpt>
      <trkpt lat="45.93047" lon="3.69529">
        <ele>1277</ele>
        <time>2017-06-04T16:17:02Z</time>
      </trkpt>
      <trkpt lat="45.93047" lon="3.69544">
        <ele>1276</ele>
        <time>2017-06-04T16:18:02Z</time>
      </trkpt>
      <trkpt lat="45.93043" lon="3.69564">
        <ele>1274</ele>
        <time>2017-06-04T16:19:02Z</time>
      </trkpt>
      <trkpt lat="45.93045" lon="3.69578">
        <ele>1273</ele>
        <time>2017-06-04T16:20:02Z</time>
      </trkpt>
      <trkpt lat="45.93046" lon="3.69593">
        <ele>1272</ele>
        <time>2017-06-04T16:21:02Z</time>
      </trkpt>
      <trkpt lat="45.93047" lon="3.69606">
        <ele>1270</ele>
        <time>2017-06-04T16:22:02Z</time>
      </trkpt>
      <trkpt lat="45.9305" lon="3.69619">
        <ele>1269</ele>
        <time>2017-06-04T16:23:02Z</time>
      </trkpt>
      <trkpt lat="45.9305" lon="3.69633">
        <ele>1267</ele>
        <time>2017-06-04T16:24:02Z</time>
      </trkpt>
      <trkpt lat="45.93046" lon="3.69646">
        <ele>1265</ele>
        <time>2017-06-04T16:25:02Z</time>
      </trkpt>
      <trkpt lat="45.93039" lon="3.69655">
        <ele>1263</ele>
        <time>2017-06-04T16:26:02Z</time>
      </trkpt>
      <trkpt lat="45.93028" lon="3.69666">
        <ele>1261</ele>
        <time>2017-06-04T16:27:02Z</time>
      </trkpt>
      <trkpt lat="45.93033" lon="3.69677">
        <ele>1260</ele>
        <time>2017-06-04T16:28:02Z</time>
      </trkpt>
      <trkpt lat="45.93041" lon="3.69685">
        <ele>1259</ele>
        <time>2017-06-04T16:29:02Z</time>
      </trkpt>
      <trkpt lat="45.93047" lon="3.69695">
        <ele>1258</ele>
        <time>2017-06-04T16:30:02Z</time>
      </trkpt>
      <trkpt lat="45.93056" lon="3.69698">
        <ele>1259</ele>
        <time>2017-06-04T16:31:02Z</time>
      </trkpt>
      <trkpt lat="45.93059" lon="3.69711">
        <ele>1257</ele>
        <time>2017-06-04T16:32:02Z</time>
      </trkpt>
      <trkpt lat="45.93068" lon="3.69715">
        <ele>1257</ele>
        <time>2017-06-04T16:33:02Z</time>
      </trkpt>
      <trkpt lat="45.93078" lon="3.69719">
        <ele>1257</ele>
        <time>2017-06-04T16:34:02Z</time>
      </trkpt>
      <trkpt lat="45.9308" lon="3.69732">
        <ele>1256</ele>
        <time>2017-06-04T16:35:02Z</time>
      </trkpt>
      <trkpt lat="45.9309" lon="3.69757">
        <ele>1252</ele>
        <time>2017-06-04T16:36:02Z</time>
      </trkpt>
      <trkpt lat="45.93094" lon="3.69769">
        <ele>1250</ele>
        <time>2017-06-04T16:37:02Z</time>
      </trkpt>
      <trkpt lat="45.93105" lon="3.69778">
        <ele>1248</ele>
        <time>2017-06-04T16:38:02Z</time>
      </trkpt>
      <trkpt lat="45.93109" lon="3.69791">
        <ele>1246</ele>
        <time>2017-06-04T16:39:02Z</time>
      </trkpt>
      <trkpt lat="45.93108" lon="3.69805">
        <ele>1245</ele>
        <time>2017-06-04T16:40:02Z</time>
      </trkpt>
      <trkpt lat="45.93119" lon="3.69838">
        <ele>1240</ele>
        <time>2017-06-04T16:41:02Z</time>
      </trkpt>
      <trkpt lat="45.93124" lon="3.6985">
        <ele>1239</ele>
        <time>2017-06-04T16:42:02Z</time>
      </trkpt>
      <trkpt lat="45.93129" lon="3.69863">
        <ele>1239</ele>
        <time>2017-06-04T16:43:02Z</time>
      </trkpt>
      <trkpt lat="45.93129" lon="3.69877">
        <ele>1238</ele>
        <time>2017-06-04T16:44:02Z</time>
      </trkpt>
      <trkpt lat="45.93125" lon="3.69889">
        <ele>1237</ele>
        <time>2017-06-04T16:45:02Z</time>
      </trkpt>
      <trkpt lat="45.93121" lon="3.69905">
        <ele>1236</ele>
        <time>2017-06-04T16:46:02Z</time>
      </trkpt>
      <trkpt lat="45.93119" lon="3.69919">
        <ele>1235</ele>
        <time>2017-06-04T16:47:02Z</time>
      </trkpt>
      <trkpt lat="45.93107" lon="3.69932">
        <ele>1235</ele>
        <time>2017-06-04T16:48:02Z</time>
      </trkpt>
      <trkpt lat="45.93101" lon="3.69947">
        <ele>1235</ele>
        <time>2017-06-04T16:49:02Z</time>
      </trkpt>
      <trkpt lat="45.93097" lon="3.6996">
        <ele>1235</ele>
        <time>2017-06-04T16:50:02Z</time>
      </trkpt>
      <trkpt lat="45.93095" lon="3.69976">
        <ele>1235</ele>
        <time>2017-06-04T16:51:02Z</time>
      </trkpt>
      <trkpt lat="45.93091" lon="3.69989">
        <ele>1235</ele>
        <time>2017-06-04T16:52:02Z</time>
      </trkpt>
      <trkpt lat="45.93096" lon="3.7">
        <ele>1235</ele>
        <time>2017-06-04T16:53:02Z</time>
      </trkpt>
      <trkpt lat="45.93102" lon="3.70009">
        <ele>1235</ele>
        <time>2017-06-04T16:54:02Z</time>
      </trkpt>
      <trkpt lat="45.93125" lon="3.70036">
        <ele>1236</ele>
        <time>2017-06-04T16:55:02Z</time>
      </trkpt>
      <trkpt lat="45.93136" lon="3.7004">
        <ele>1236</ele>
        <time>2017-06-04T16:56:02Z</time>
      </trkpt>
      <trkpt lat="45.93154" lon="3.70062">
        <ele>1235</ele>
        <time>2017-06-04T16:57:02Z</time>
      </trkpt>
      <trkpt lat="45.93162" lon="3.70069">
        <ele>1235</ele>
        <time>2017-06-04T16:58:02Z</time>
      </trkpt>
      <trkpt lat="45.93166" lon="3.70081">
        <ele>1235</ele>
        <time>2017-06-04T16:59:02Z</time>
      </trkpt>
      <trkpt lat="45.93171" lon="3.70092">
        <ele>1235</ele>
        <time>2017-06-04T17:00:02Z</time>
      </trkpt>
      <trkpt lat="45.9318" lon="3.70099">
        <ele>1234</ele>
        <time>2017-06-04T17:01:02Z</time>
      </trkpt>
      <trkpt lat="45.93189" lon="3.70111">
        <ele>1233</ele>
        <time>2017-06-04T17:02:02Z</time>
      </trkpt>
      <trkpt lat="45.93195" lon="3.70122">
        <ele>1232</ele>
        <time>2017-06-04T17:03:02Z</time>
      </trkpt>
      <trkpt lat="45.93198" lon="3.70135">
        <ele>1232</ele>
        <time>2017-06-04T17:04:02Z</time>
      </trkpt>
      <trkpt lat="45.93203" lon="3.70145">
        <ele>1231</ele>
        <time>2017-06-04T17:05:02Z</time>
      </trkpt>
      <trkpt lat="45.93211" lon="3.70153">
        <ele>1230</ele>
        <time>2017-06-04T17:06:02Z</time>
      </trkpt>
      <trkpt lat="45.93218" lon="3.70169">
        <ele>1229</ele>
        <time>2017-06-04T17:07:02Z</time>
      </trkpt>
      <trkpt lat="45.93223" lon="3.70181">
        <ele>1229</ele>
        <time>2017-06-04T17:08:02Z</time>
      </trkpt>
      <trkpt lat="45.93218" lon="3.70193">
        <ele>1230</ele>
        <time>2017-06-04T17:09:02Z</time>
      </trkpt>
      <trkpt lat="45.93217" lon="3.70206">
        <ele>1230</ele>
        <time>2017-06-04T17:10:02Z</time>
      </trkpt>
      <trkpt lat="45.93218" lon="3.70221">
        <ele>1230</ele>
        <time>2017-06-04T17:11:02Z</time>
      </trkpt>
      <trkpt lat="45.93219" lon="3.70234">
        <ele>1230</ele>
        <time>2017-06-04T17:12:02Z</time>
      </trkpt>
      <trkpt lat="45.93219" lon="3.70248">
        <ele>1230</ele>
        <time>2017-06-04T17:13:02Z</time>
      </trkpt>
      <trkpt lat="45.9322" lon="3.70262">
        <ele>1229</ele>
        <time>2017-06-04T17:14:02Z</time>
      </trkpt>
      <trkpt lat="45.93218" lon="3.70276">
        <ele>1229</ele>
        <time>2017-06-04T17:15:02Z</time>
      </trkpt>
      <trkpt lat="45.93222" lon="3.70289">
        <ele>1228</ele>
        <time>2017-06-04T17:16:02Z</time>
      </trkpt>
      <trkpt lat="45.93225" lon="3.70303">
        <ele>1227</ele>
        <time>2017-06-04T17:17:02Z</time>
      </trkpt>
      <trkpt lat="45.93233" lon="3.70316">
        <ele>1225</ele>
        <time>2017-06-04T17:18:02Z</time>
      </trkpt>
      <trkpt lat="45.93229" lon="3.70329">
        <ele>1225</ele>
        <time>2017-06-04T17:19:02Z</time>
      </trkpt>
      <trkpt lat="45.93227" lon="3.70363">
        <ele>1224</ele>
        <time>2017-06-04T17:20:02Z</time>
      </trkpt>
      <trkpt lat="45.93227" lon="3.70377">
        <ele>1223</ele>
        <time>2017-06-04T17:21:02Z</time>
      </trkpt>
      <trkpt lat="45.93233" lon="3.70388">
        <ele>1222</ele>
        <time>2017-06-04T17:22:02Z</time>
      </trkpt>
      <trkpt lat="45.93235" lon="3.70408">
        <ele>1220</ele>
        <time>2017-06-04T17:23:02Z</time>
      </trkpt>
      <trkpt lat="45.93237" lon="3.7042">
        <ele>1220</ele>
        <time>2017-06-04T17:24:02Z</time>
      </trkpt>
      <trkpt lat="45.93238" lon="3.70434">
        <ele>1219</ele>
        <time>2017-06-04T17:25:02Z</time>
      </trkpt>
      <trkpt lat="45.93242" lon="3.70461">
        <ele>1216</ele>
        <time>2017-06-04T17:26:02Z</time>
      </trkpt>
      <trkpt lat="45.93247" lon="3.70475">
        <ele>1215</ele>
        <time>2017-06-04T17:27:02Z</time>
      </trkpt>
      <trkpt lat="45.93247" lon="3.70488">
        <ele>1214</ele>
        <time>2017-06-04T17:28:02Z</time>
      </trkpt>
      <trkpt lat="45.93256" lon="3.70494">
        <ele>1213</ele>
        <time>2017-06-04T17:29:02Z</time>
      </trkpt>
      <trkpt lat="45.93265" lon="3.70497">
        <ele>1211</ele>
        <time>2017-06-04T17:30:02Z</time>
      </trkpt>
      <trkpt lat="45.9327" lon="3.70508">
        <ele>1210</ele>
        <time>2017-06-04T17:31:02Z</time>
      </trkpt>
      <trkpt lat="45.93279" lon="3.70513">
        <ele>1209</ele>
        <time>2017-06-04T17:32:02Z</time>
      </trkpt>
      <trkpt lat="45.93288" lon="3.70515">
        <ele>1208</ele>
        <time>2017-06-04T17:33:02Z</time>
      </trkpt>
      <trkpt lat="45.93297" lon="3.70521">
        <ele>1206</ele>
        <time>2017-06-04T17:34:02Z</time>
      </trkpt>
      <trkpt lat="45.93306" lon="3.70524">
        <ele>1205</ele>
        <time>2017-06-04T17:35:02Z</time>
      </trkpt>
      <trkpt lat="45.93315" lon="3.70528">
        <ele>1204</ele>
        <time>2017-06-04T17:36:02Z</time>
      </trkpt>
      <trkpt lat="45.93324" lon="3.7053">
        <ele>1203</ele>
        <time>2017-06-04T17:37:02Z</time>
      </trkpt>
      <trkpt lat="45.93333" lon="3.70534">
        <ele>1201</ele>
        <time>2017-06-04T17:38:02Z</time>
      </trkpt>
      <trkpt lat="45.9334" lon="3.70542">
        <ele>1201</ele>
        <time>2017-06-04T17:39:02Z</time>
      </trkpt>
      <trkpt lat="45.9335" lon="3.70545">
        <ele>1201</ele>
        <time>2017-06-04T17:40:02Z</time>
      </trkpt>
      <trkpt lat="45.9336" lon="3.70547">
        <ele>1200</ele>
        <time>2017-06-04T17:41:02Z</time>
      </trkpt>
      <trkpt lat="45.93369" lon="3.70547">
        <ele>1200</ele>
        <time>2017-06-04T17:42:02Z</time>
      </trkpt>
      <trkpt lat="45.93376" lon="3.70537">
        <ele>1201</ele>
        <time>2017-06-04T17:43:02Z</time>
      </trkpt>
      <trkpt lat="45.93369" lon="3.70545">
        <ele>1200</ele>
        <time>2017-06-04T17:44:02Z</time>
      </trkpt>
      <trkpt lat="45.93377" lon="3.70538">
        <ele>1201</ele>
        <time>2017-06-04T17:45:02Z</time>
      </trkpt>
      <trkpt lat="45.93371" lon="3.70548">
        <ele>1200</ele>
        <time>2017-06-04T17:46:02Z</time>
      </trkpt>
      <trkpt lat="45.93365" lon="3.7056">
        <ele>1200</ele>
        <time>2017-06-04T17:47:02Z</time>
      </trkpt>
      <trkpt lat="45.93361" lon="3.70576">
        <ele>1199</ele>
        <time>2017-06-04T17:48:02Z</time>
      </trkpt>
      <trkpt lat="45.93356" lon="3.70587">
        <ele>1199</ele>
        <time>2017-06-04T17:49:02Z</time>
      </trkpt>
      <trkpt lat="45.93348" lon="3.70598">
        <ele>1198</ele>
        <time>2017-06-04T17:50:02Z</time>
      </trkpt>
      <trkpt lat="45.93341" lon="3.7062">
        <ele>1196</ele>
        <time>2017-06-04T17:51:02Z</time>
      </trkpt>
      <trkpt lat="45.93335" lon="3.7063">
        <ele>1195</ele>
        <time>2017-06-04T17:52:02Z</time>
      </trkpt>
      <trkpt lat="45.93328" lon="3.70638">
        <ele>1195</ele>
        <time>2017-06-04T17:53:02Z</time>
      </trkpt>
      <trkpt lat="45.93314" lon="3.70659">
        <ele>1195</ele>
        <time>2017-06-04T17:54:02Z</time>
      </trkpt>
      <trkpt lat="45.93305" lon="3.70663">
        <ele>1196</ele>
        <time>2017-06-04T17:55:02Z</time>
      </trkpt>
      <trkpt lat="45.93299" lon="3.70674">
        <ele>1196</ele>
        <time>2017-06-04T17:56:02Z</time>
      </trkpt>
      <trkpt lat="45.93284" lon="3.70689">
        <ele>1197</ele>
        <time>2017-06-04T17:57:02Z</time>
      </trkpt>
      <trkpt lat="45.93274" lon="3.70691">
        <ele>1198</ele>
        <time>2017-06-04T17:58:02Z</time>
      </trkpt>
      <trkpt lat="45.93266" lon="3.70699">
        <ele>1199</ele>
        <time>2017-06-04T17:59:02Z</time>
      </trkpt>
      <trkpt lat="45.93258" lon="3.70704">
        <ele>1199</ele>
        <time>2017-06-04T18:00:02Z</time>
      </trkpt>
      <trkpt lat="45.9324" lon="3.70718">
        <ele>1199</ele>
        <time>2017-06-04T18:01:02Z</time>
      </trkpt>
      <trkpt lat="45.9323" lon="3.70722">
        <ele>1199</ele>
        <time>2017-06-04T18:02:02Z</time>
      </trkpt>
      <trkpt lat="45.93221" lon="3.70725">
        <ele>1198</ele>
        <time>2017-06-04T18:03:02Z</time>
      </trkpt>
      <trkpt lat="45.93213" lon="3.70728">
        <ele>1198</ele>
        <time>2017-06-04T18:04:02Z</time>
      </trkpt>
      <trkpt lat="45.93204" lon="3.70736">
        <ele>1197</ele>
        <time>2017-06-04T18:05:02Z</time>
      </trkpt>
      <trkpt lat="45.93194" lon="3.70742">
        <ele>1196</ele>
        <time>2017-06-04T18:06:02Z</time>
      </trkpt>
      <trkpt lat="45.93187" lon="3.70751">
        <ele>1195</ele>
        <time>2017-06-04T18:07:02Z</time>
      </trkpt>
      <trkpt lat="45.93169" lon="3.70757">
        <ele>1193</ele>
        <time>2017-06-04T18:08:02Z</time>
      </trkpt>
      <trkpt lat="45.93158" lon="3.70756">
        <ele>1192</ele>
        <time>2017-06-04T18:09:02Z</time>
      </trkpt>
      <trkpt lat="45.93148" lon="3.70753">
        <ele>1192</ele>
        <time>2017-06-04T18:10:02Z</time>
      </trkpt>
      <trkpt lat="45.93138" lon="3.70751">
        <ele>1192</ele>
        <time>2017-06-04T18:11:02Z</time>
      </trkpt>
      <trkpt lat="45.93111" lon="3.7075">
        <ele>1190</ele>
        <time>2017-06-04T18:12:02Z</time>
      </trkpt>
      <trkpt lat="45.93103" lon="3.70744">
        <ele>1190</ele>
        <time>2017-06-04T18:13:02Z</time>
      </trkpt>
      <trkpt lat="45.93093" lon="3.70745">
        <ele>1189</ele>
        <time>2017-06-04T18:14:02Z</time>
      </trkpt>
      <trkpt lat="45.93084" lon="3.70744">
        <ele>1189</ele>
        <time>2017-06-04T18:15:02Z</time>
      </trkpt>
      <trkpt lat="45.93075" lon="3.70739">
        <ele>1188</ele>
        <time>2017-06-04T18:16:02Z</time>
      </trkpt>
      <trkpt lat="45.93064" lon="3.7074">
        <ele>1187</ele>
        <time>2017-06-04T18:17:02Z</time>
      </trkpt>
      <trkpt lat="45.93055" lon="3.70737">
        <ele>1186</ele>
        <time>2017-06-04T18:18:02Z</time>
      </trkpt>
      <trkpt lat="45.93046" lon="3.70732">
        <ele>1185</ele>
        <time>2017-06-04T18:19:02Z</time>
      </trkpt>
      <trkpt lat="45.93038" lon="3.70737">
        <ele>1184</ele>
        <time>2017-06-04T18:20:02Z</time>
      </trkpt>
      <trkpt lat="45.93028" lon="3.70734">
        <ele>1183</ele>
        <time>2017-06-04T18:21:02Z</time>
      </trkpt>
      <trkpt lat="45.93018" lon="3.70735">
        <ele>1182</ele>
        <time>2017-06-04T18:22:02Z</time>
      </trkpt>
      <trkpt lat="45.93009" lon="3.70739">
        <ele>1180</ele>
        <time>2017-06-04T18:23:02Z</time>
      </trkpt>
      <trkpt lat="45.93" lon="3.70745">
        <ele>1179</ele>
        <time>2017-06-04T18:24:02Z</time>
      </trkpt>
      <trkpt lat="45.92993" lon="3.70755">
        <ele>1178</ele>
        <time>2017-06-04T18:25:02Z</time>
      </trkpt>
      <trkpt lat="45.92979" lon="3.70772">
        <ele>1177</ele>
        <time>2017-06-04T18:26:02Z</time>
      </trkpt>
      <trkpt lat="45.92972" lon="3.70782">
        <ele>1177</ele>
        <time>2017-06-04T18:27:02Z</time>
      </trkpt>
      <trkpt lat="45.92962" lon="3.70806">
        <ele>1177</ele>
        <time>2017-06-04T18:28:02Z</time>
      </trkpt>
      <trkpt lat="45.92954" lon="3.70811">
        <ele>1176</ele>
        <time>2017-06-04T18:29:02Z</time>
      </trkpt>
      <trkpt lat="45.92946" lon="3.70823">
        <ele>1176</ele>
        <time>2017-06-04T18:30:02Z</time>
      </trkpt>
      <trkpt lat="45.92936" lon="3.70827">
        <ele>1176</ele>
        <time>2017-06-04T18:31:02Z</time>
      </trkpt>
      <trkpt lat="45.92927" lon="3.70832">
        <ele>1176</ele>
        <time>2017-06-04T18:32:02Z</time>
      </trkpt>
      <trkpt lat="45.92918" lon="3.70835">
        <ele>1176</ele>
        <time>2017-06-04T18:33:02Z</time>
      </trkpt>
      <trkpt lat="45.92908" lon="3.7084">
        <ele>1176</ele>
        <time>2017-06-04T18:34:02Z</time>
      </trkpt>
      <trkpt lat="45.92902" lon="3.70851">
        <ele>1176</ele>
        <time>2017-06-04T18:35:02Z</time>
      </trkpt>
      <trkpt lat="45.92885" lon="3.70863">
        <ele>1177</ele>
        <time>2017-06-04T18:36:02Z</time>
      </trkpt>
      <trkpt lat="45.92876" lon="3.70866">
        <ele>1178</ele>
        <time>2017-06-04T18:37:02Z</time>
      </trkpt>
      <trkpt lat="45.92866" lon="3.70867">
        <ele>1178</ele>
        <time>2017-06-04T18:38:02Z</time>
      </trkpt>
      <trkpt lat="45.92858" lon="3.70873">
        <ele>1179</ele>
        <time>2017-06-04T18:39:02Z</time>
      </trkpt>
      <trkpt lat="45.92848" lon="3.70881">
        <ele>1179</ele>
        <time>2017-06-04T18:40:02Z</time>
      </trkpt>
      <trkpt lat="45.92838" lon="3.70885">
        <ele>1180</ele>
        <time>2017-06-04T18:41:02Z</time>
      </trkpt>
      <trkpt lat="45.92829" lon="3.70885">
        <ele>1180</ele>
        <time>2017-06-04T18:42:02Z</time>
      </trkpt>
      <trkpt lat="45.9282" lon="3.70892">
        <ele>1180</ele>
        <time>2017-06-04T18:43:02Z</time>
      </trkpt>
      <trkpt lat="45.92811" lon="3.70891">
        <ele>1180</ele>
        <time>2017-06-04T18:44:02Z</time>
      </trkpt>
      <trkpt lat="45.92783" lon="3.7089">
        <ele>1180</ele>
        <time>2017-06-04T18:45:02Z</time>
      </trkpt>
      <trkpt lat="45.92774" lon="3.70886">
        <ele>1180</ele>
        <time>2017-06-04T18:46:02Z</time>
      </trkpt>
      <trkpt lat="45.92755" lon="3.70899">
        <ele>1180</ele>
        <time>2017-06-04T18:47:02Z</time>
      </trkpt>
      <trkpt lat="45.92748" lon="3.70908">
        <ele>1180</ele>
        <time>2017-06-04T18:48:02Z</time>
      </trkpt>
      <trkpt lat="45.92738" lon="3.70913">
        <ele>1180</ele>
        <time>2017-06-04T18:49:02Z</time>
      </trkpt>
      <trkpt lat="45.92728" lon="3.70915">
        <ele>1179</ele>
        <time>2017-06-04T18:50:02Z</time>
      </trkpt>
      <trkpt lat="45.92719" lon="3.70917">
        <ele>1179</ele>
        <time>2017-06-04T18:51:02Z</time>
      </trkpt>
      <trkpt lat="45.92711" lon="3.70921">
        <ele>1179</ele>
        <time>2017-06-04T18:52:02Z</time>
      </trkpt>
      <trkpt lat="45.92703" lon="3.70931">
        <ele>1180</ele>
        <time>2017-06-04T18:53:02Z</time>
      </trkpt>
      <trkpt lat="45.92699" lon="3.70943">
        <ele>1180</ele>
        <time>2017-06-04T18:54:02Z</time>
      </trkpt>
      <trkpt lat="45.92688" lon="3.70965">
        <ele>1181</ele>
        <time>2017-06-04T18:55:02Z</time>
      </trkpt>
      <trkpt lat="45.92678" lon="3.70971">
        <ele>1181</ele>
        <time>2017-06-04T18:56:02Z</time>
      </trkpt>
      <trkpt lat="45.92671" lon="3.7098">
        <ele>1182</ele>
        <time>2017-06-04T18:57:02Z</time>
      </trkpt>
      <trkpt lat="45.92666" lon="3.70992">
        <ele>1183</ele>
        <time>2017-06-04T18:58:02Z</time>
      </trkpt>
      <trkpt lat="45.92664" lon="3.71006">
        <ele>1183</ele>
        <time>2017-06-04T18:59:02Z</time>
      </trkpt>
      <trkpt lat="45.92657" lon="3.71014">
        <ele>1183</ele>
        <time>2017-06-04T19:00:02Z</time>
      </trkpt>
      <trkpt lat="45.92651" lon="3.71027">
        <ele>1184</ele>
        <time>2017-06-04T19:01:02Z</time>
      </trkpt>
      <trkpt lat="45.92648" lon="3.7104">
        <ele>1184</ele>
        <time>2017-06-04T19:02:02Z</time>
      </trkpt>
      <trkpt lat="45.9264" lon="3.7105">
        <ele>1184</ele>
        <time>2017-06-04T19:03:02Z</time>
      </trkpt>
      <trkpt lat="45.92632" lon="3.71056">
        <ele>1183</ele>
        <time>2017-06-04T19:04:02Z</time>
      </trkpt>
      <trkpt lat="45.92623" lon="3.71063">
        <ele>1183</ele>
        <time>2017-06-04T19:05:02Z</time>
      </trkpt>
      <trkpt lat="45.92615" lon="3.71068">
        <ele>1183</ele>
        <time>2017-06-04T19:06:02Z</time>
      </trkpt>
      <trkpt lat="45.92606" lon="3.71075">
        <ele>1182</ele>
        <time>2017-06-04T19:07:02Z</time>
      </trkpt>
      <trkpt lat="45.92596" lon="3.7108">
        <ele>1182</ele>
        <time>2017-06-04T19:08:02Z</time>
      </trkpt>
      <trkpt lat="45.92589" lon="3.71088">
        <ele>1181</ele>
        <time>2017-06-04T19:09:02Z</time>
      </trkpt>
      <trkpt lat="45.92583" lon="3.71099">
        <ele>1181</ele>
        <time>2017-06-04T19:10:02Z</time>
      </trkpt>
      <trkpt lat="45.92577" lon="3.71112">
        <ele>1181</ele>
        <time>2017-06-04T19:11:02Z</time>
      </trkpt>
      <trkpt lat="45.92572" lon="3.71124">
        <ele>1180</ele>
        <time>2017-06-04T19:12:02Z</time>
      </trkpt>
      <trkpt lat="45.92561" lon="3.71135">
        <ele>1180</ele>
        <time>2017-06-04T19:13:02Z</time>
      </trkpt>
      <trkpt lat="45.92558" lon="3.71149">
        <ele>1179</ele>
        <time>2017-06-04T19:14:02Z</time>
      </trkpt>
      <trkpt lat="45.92556" lon="3.71162">
        <ele>1179</ele>
        <time>2017-06-04T19:15:02Z</time>
      </trkpt>
      <trkpt lat="45.92556" lon="3.71176">
        <ele>1179</ele>
        <time>2017-06-04T19:16:02Z</time>
      </trkpt>
      <trkpt lat="45.92551" lon="3.7119">
        <ele>1179</ele>
        <time>2017-06-04T19:17:02Z</time>
      </trkpt>
      <trkpt lat="45.9255" lon="3.71205">
        <ele>1180</ele>
        <time>2017-06-04T19:18:02Z</time>
      </trkpt>
      <trkpt lat="45.92547" lon="3.71218">
        <ele>1180</ele>
        <time>2017-06-04T19:19:02Z</time>
      </trkpt>
      <trkpt lat="45.92547" lon="3.71234">
        <ele>1181</ele>
        <time>2017-06-04T19:20:02Z</time>
      </trkpt>
      <trkpt lat="45.92546" lon="3.7126">
        <ele>1182</ele>
        <time>2017-06-04T19:21:02Z</time>
      </trkpt>
      <trkpt lat="45.92541" lon="3.71273">
        <ele>1181</ele>
        <time>2017-06-04T19:22:02Z</time>
      </trkpt>
      <trkpt lat="45.92541" lon="3.71287">
        <ele>1181</ele>
        <time>2017-06-04T19:23:02Z</time>
      </trkpt>
      <trkpt lat="45.9254" lon="3.71301">
        <ele>1181</ele>
        <time>2017-06-04T19:24:02Z</time>
      </trkpt>
      <trkpt lat="45.92537" lon="3.71315">
        <ele>1181</ele>
        <time>2017-06-04T19:25:02Z</time>
      </trkpt>
      <trkpt lat="45.92537" lon="3.71329">
        <ele>1181</ele>
        <time>2017-06-04T19:26:02Z</time>
      </trkpt>
      <trkpt lat="45.92532" lon="3.71341">
        <ele>1180</ele>
        <time>2017-06-04T19:27:02Z</time>
      </trkpt>
      <trkpt lat="45.9253" lon="3.71353">
        <ele>1179</ele>
        <time>2017-06-04T19:28:02Z</time>
      </trkpt>
      <trkpt lat="45.92529" lon="3.71367">
        <ele>1179</ele>
        <time>2017-06-04T19:29:02Z</time>
      </trkpt>
      <trkpt lat="45.92522" lon="3.71379">
        <ele>1177</ele>
        <time>2017-06-04T19:30:02Z</time>
      </trkpt>
      <trkpt lat="45.92521" lon="3.71393">
        <ele>1177</ele>
        <time>2017-06-04T19:31:02Z</time>
      </trkpt>
      <trkpt lat="45.92514" lon="3.71403">
        <ele>1175</ele>
        <time>2017-06-04T19:32:02Z</time>
      </trkpt>
      <trkpt lat="45.92511" lon="3.71415">
        <ele>1174</ele>
        <time>2017-06-04T19:33:02Z</time>
      </trkpt>
      <trkpt lat="45.92499" lon="3.71438">
        <ele>1172</ele>
        <time>2017-06-04T19:34:02Z</time>
      </trkpt>
      <trkpt lat="45.92492" lon="3.71447">
        <ele>1171</ele>
        <time>2017-06-04T19:35:02Z</time>
      </trkpt>
      <trkpt lat="45.92487" lon="3.7146">
        <ele>1170</ele>
        <time>2017-06-04T19:36:02Z</time>
      </trkpt>
      <trkpt lat="45.92477" lon="3.71483">
        <ele>1168</ele>
        <time>2017-06-04T19:37:02Z</time>
      </trkpt>
      <trkpt lat="45.92471" lon="3.71492">
        <ele>1167</ele>
        <time>2017-06-04T19:38:02Z</time>
      </trkpt>
      <trkpt lat="45.92466" lon="3.71504">
        <ele>1166</ele>
        <time>2017-06-04T19:39:02Z</time>
      </trkpt>
      <trkpt lat="45.92458" lon="3.71512">
        <ele>1165</ele>
        <time>2017-06-04T19:40:02Z</time>
      </trkpt>
      <trkpt lat="45.92452" lon="3.71523">
        <ele>1164</ele>
        <time>2017-06-04T19:41:02Z</time>
      </trkpt>
      <trkpt lat="45.92448" lon="3.71536">
        <ele>1163</ele>
        <time>2017-06-04T19:42:02Z</time>
      </trkpt>
      <trkpt lat="45.92442" lon="3.71547">
        <ele>1162</ele>
        <time>2017-06-04T19:43:02Z</time>
      </trkpt>
      <trkpt lat="45.92435" lon="3.71555">
        <ele>1161</ele>
        <time>2017-06-04T19:44:02Z</time>
      </trkpt>
      <trkpt lat="45.92429" lon="3.71566">
        <ele>1160</ele>
        <time>2017-06-04T19:45:02Z</time>
      </trkpt>
      <trkpt lat="45.92429" lon="3.71583">
        <ele>1160</ele>
        <time>2017-06-04T19:46:02Z</time>
      </trkpt>
      <trkpt lat="45.92426" lon="3.71597">
        <ele>1159</ele>
        <time>2017-06-04T19:47:02Z</time>
      </trkpt>
      <trkpt lat="45.92421" lon="3.71609">
        <ele>1159</ele>
        <time>2017-06-04T19:48:02Z</time>
      </trkpt>
      <trkpt lat="45.92417" lon="3.7162">
        <ele>1158</ele>
        <time>2017-06-04T19:49:02Z</time>
      </trkpt>
      <trkpt lat="45.92417" lon="3.71634">
        <ele>1158</ele>
        <time>2017-06-04T19:50:02Z</time>
      </trkpt>
      <trkpt lat="45.92419" lon="3.71648">
        <ele>1158</ele>
        <time>2017-06-04T19:51:02Z</time>
      </trkpt>
      <trkpt lat="45.92417" lon="3.71661">
        <ele>1157</ele>
        <time>2017-06-04T19:52:02Z</time>
      </trkpt>
      <trkpt lat="45.92414" lon="3.71673">
        <ele>1156</ele>
        <time>2017-06-04T19:53:02Z</time>
      </trkpt>
      <trkpt lat="45.92412" lon="3.71686">
        <ele>1155</ele>
        <time>2017-06-04T19:54:02Z</time>
      </trkpt>
      <trkpt lat="45.92412" lon="3.717">
        <ele>1154</ele>
        <time>2017-06-04T19:55:02Z</time>
      </trkpt>
      <trkpt lat="45.92415" lon="3.71713">
        <ele>1153</ele>
        <time>2017-06-04T19:56:02Z</time>
      </trkpt>
      <trkpt lat="45.92417" lon="3.71726">
        <ele>1153</ele>
        <time>2017-06-04T19:57:02Z</time>
      </trkpt>
      <trkpt lat="45.92416" lon="3.7174">
        <ele>1152</ele>
        <time>2017-06-04T19:58:02Z</time>
      </trkpt>
      <trkpt lat="45.92414" lon="3.71756">
        <ele>1150</ele>
        <time>2017-06-04T19:59:02Z</time>
      </trkpt>
      <trkpt lat="45.92417" lon="3.71786">
        <ele>1149</ele>
        <time>2017-06-04T20:00:02Z</time>
      </trkpt>
      <trkpt lat="45.92415" lon="3.71801">
        <ele>1148</ele>
        <time>2017-06-04T20:01:02Z</time>
      </trkpt>
      <trkpt lat="45.92413" lon="3.71813">
        <ele>1147</ele>
        <time>2017-06-04T20:02:02Z</time>
      </trkpt>
      <trkpt lat="45.92409" lon="3.71827">
        <ele>1146</ele>
        <time>2017-06-04T20:03:02Z</time>
      </trkpt>
      <trkpt lat="45.92405" lon="3.71838">
        <ele>1145</ele>
        <time>2017-06-04T20:04:02Z</time>
      </trkpt>
      <trkpt lat="45.92402" lon="3.71851">
        <ele>1143</ele>
        <time>2017-06-04T20:05:02Z</time>
      </trkpt>
      <trkpt lat="45.92395" lon="3.71861">
        <ele>1141</ele>
        <time>2017-06-04T20:06:02Z</time>
      </trkpt>
      <trkpt lat="45.9239" lon="3.71878">
        <ele>1139</ele>
        <time>2017-06-04T20:07:02Z</time>
      </trkpt>
      <trkpt lat="45.92386" lon="3.7189">
        <ele>1138</ele>
        <time>2017-06-04T20:08:02Z</time>
      </trkpt>
      <trkpt lat="45.92381" lon="3.71902">
        <ele>1136</ele>
        <time>2017-06-04T20:09:02Z</time>
      </trkpt>
      <trkpt lat="45.92377" lon="3.71914">
        <ele>1135</ele>
        <time>2017-06-04T20:10:02Z</time>
      </trkpt>
      <trkpt lat="45.92367" lon="3.71938">
        <ele>1133</ele>
        <time>2017-06-04T20:11:02Z</time>
      </trkpt>
      <trkpt lat="45.92363" lon="3.71949">
        <ele>1133</ele>
        <time>2017-06-04T20:12:02Z</time>
      </trkpt>
      <trkpt lat="45.92357" lon="3.71961">
        <ele>1132</ele>
        <time>2017-06-04T20:13:02Z</time>
      </trkpt>
      <trkpt lat="45.9235" lon="3.7197">
        <ele>1131</ele>
        <time>2017-06-04T20:14:02Z</time>
      </trkpt>
      <trkpt lat="45.92342" lon="3.71976">
        <ele>1131</ele>
        <time>2017-06-04T20:15:02Z</time>
      </trkpt>
      <trkpt lat="45.92337" lon="3.71988">
        <ele>1130</ele>
        <time>2017-06-04T20:16:02Z</time>
      </trkpt>
      <trkpt lat="45.92333" lon="3.72">
        <ele>1130</ele>
        <time>2017-06-04T20:17:02Z</time>
      </trkpt>
      <trkpt lat="45.92331" lon="3.72013">
        <ele>1130</ele>
        <time>2017-06-04T20:18:02Z</time>
      </trkpt>
      <trkpt lat="45.92328" lon="3.72027">
        <ele>1129</ele>
        <time>2017-06-04T20:19:02Z</time>
      </trkpt>
      <trkpt lat="45.92323" lon="3.72038">
        <ele>1129</ele>
        <time>2017-06-04T20:20:02Z</time>
      </trkpt>
      <trkpt lat="45.92321" lon="3.72051">
        <ele>1128</ele>
        <time>2017-06-04T20:21:02Z</time>
      </trkpt>
      <trkpt lat="45.92319" lon="3.72063">
        <ele>1128</ele>
        <time>2017-06-04T20:22:02Z</time>
      </trkpt>
      <trkpt lat="45.92307" lon="3.72086">
        <ele>1127</ele>
        <time>2017-06-04T20:23:02Z</time>
      </trkpt>
      <trkpt lat="45.92305" lon="3.72099">
        <ele>1127</ele>
        <time>2017-06-04T20:24:02Z</time>
      </trkpt>
      <trkpt lat="45.923" lon="3.7211">
        <ele>1127</ele>
        <time>2017-06-04T20:25:02Z</time>
      </trkpt>
      <trkpt lat="45.92302" lon="3.72124">
        <ele>1127</ele>
        <time>2017-06-04T20:26:02Z</time>
      </trkpt>
      <trkpt lat="45.92295" lon="3.72134">
        <ele>1126</ele>
        <time>2017-06-04T20:27:02Z</time>
      </trkpt>
      <trkpt lat="45.92288" lon="3.72145">
        <ele>1126</ele>
        <time>2017-06-04T20:28:02Z</time>
      </trkpt>
      <trkpt lat="45.9228" lon="3.72151">
        <ele>1125</ele>
        <time>2017-06-04T20:29:02Z</time>
      </trkpt>
      <trkpt lat="45.92273" lon="3.72161">
        <ele>1124</ele>
        <time>2017-06-04T20:30:02Z</time>
      </trkpt>
      <trkpt lat="45.92265" lon="3.72167">
        <ele>1124</ele>
        <time>2017-06-04T20:31:02Z</time>
      </trkpt>
      <trkpt lat="45.92258" lon="3.72175">
        <ele>1124</ele>
        <time>2017-06-04T20:32:02Z</time>
      </trkpt>
      <trkpt lat="45.92252" lon="3.72186">
        <ele>1123</ele>
        <time>2017-06-04T20:33:02Z</time>
      </trkpt>
      <trkpt lat="45.92248" lon="3.72198">
        <ele>1123</ele>
        <time>2017-06-04T20:34:02Z</time>
      </trkpt>
      <trkpt lat="45.92243" lon="3.72212">
        <ele>1124</ele>
        <time>2017-06-04T20:35:02Z</time>
      </trkpt>
      <trkpt lat="45.92236" lon="3.72224">
        <ele>1124</ele>
        <time>2017-06-04T20:36:02Z</time>
      </trkpt>
      <trkpt lat="45.92228" lon="3.72233">
        <ele>1124</ele>
        <time>2017-06-04T20:37:02Z</time>
      </trkpt>
      <trkpt lat="45.92225" lon="3.72246">
        <ele>1124</ele>
        <time>2017-06-04T20:38:02Z</time>
      </trkpt>
      <trkpt lat="45.92218" lon="3.72255">
        <ele>1124</ele>
        <time>2017-06-04T20:39:02Z</time>
      </trkpt>
      <trkpt lat="45.92215" lon="3.72269">
        <ele>1125</ele>
        <time>2017-06-04T20:40:02Z</time>
      </trkpt>
      <trkpt lat="45.92212" lon="3.72283">
        <ele>1125</ele>
        <time>2017-06-04T20:41:02Z</time>
      </trkpt>
      <trkpt lat="45.92207" lon="3.72295">
        <ele>1125</ele>
        <time>2017-06-04T20:42:02Z</time>
      </trkpt>
      <trkpt lat="45.92203" lon="3.72307">
        <ele>1125</ele>
        <time>2017-06-04T20:43:02Z</time>
      </trkpt>
      <trkpt lat="45.922" lon="3.7232">
        <ele>1125</ele>
        <time>2017-06-04T20:44:02Z</time>
      </trkpt>
      <trkpt lat="45.92198" lon="3.72333">
        <ele>1125</ele>
        <time>2017-06-04T20:45:02Z</time>
      </trkpt>
      <trkpt lat="45.92197" lon="3.72347">
        <ele>1125</ele>
        <time>2017-06-04T20:46:02Z</time>
      </trkpt>
      <trkpt lat="45.92191" lon="3.72358">
        <ele>1125</ele>
        <time>2017-06-04T20:47:02Z</time>
      </trkpt>
      <trkpt lat="45.92182" lon="3.72366">
        <ele>1125</ele>
        <time>2017-06-04T20:48:02Z</time>
      </trkpt>
      <trkpt lat="45.92177" lon="3.72377">
        <ele>1125</ele>
        <time>2017-06-04T20:49:02Z</time>
      </trkpt>
      <trkpt lat="45.92172" lon="3.72389">
        <ele>1124</ele>
        <time>2017-06-04T20:50:02Z</time>
      </trkpt>
      <trkpt lat="45.92169" lon="3.72403">
        <ele>1124</ele>
        <time>2017-06-04T20:51:02Z</time>
      </trkpt>
      <trkpt lat="45.92161" lon="3.72411">
        <ele>1124</ele>
        <time>2017-06-04T20:52:02Z</time>
      </trkpt>
      <trkpt lat="45.92137" lon="3.7243">
        <ele>1122</ele>
        <time>2017-06-04T20:53:02Z</time>
      </trkpt>
      <trkpt lat="45.92129" lon="3.72442">
        <ele>1121</ele>
        <time>2017-06-04T20:54:02Z</time>
      </trkpt>
      <trkpt lat="45.92125" lon="3.72454">
        <ele>1121</ele>
        <time>2017-06-04T20:55:02Z</time>
      </trkpt>
      <trkpt lat="45.9212" lon="3.72465">
        <ele>1120</ele>
        <time>2017-06-04T20:56:02Z</time>
      </trkpt>
      <trkpt lat="45.92111" lon="3.7247">
        <ele>1118</ele>
        <time>2017-06-04T20:57:02Z</time>
      </trkpt>
      <trkpt lat="45.92104" lon="3.7248">
        <ele>1117</ele>
        <time>2017-06-04T20:58:02Z</time>
      </trkpt>
      <trkpt lat="45.92096" lon="3.72486">
        <ele>1116</ele>
        <time>2017-06-04T20:59:02Z</time>
      </trkpt>
      <trkpt lat="45.92093" lon="3.725">
        <ele>1115</ele>
        <time>2017-06-04T21:00:02Z</time>
      </trkpt>
      <trkpt lat="45.92084" lon="3.72503">
        <ele>1113</ele>
        <time>2017-06-04T21:01:02Z</time>
      </trkpt>
      <trkpt lat="45.92075" lon="3.725">
        <ele>1113</ele>
        <time>2017-06-04T21:02:02Z</time>
      </trkpt>
      <trkpt lat="45.92061" lon="3.72499">
        <ele>1114</ele>
        <time>2017-06-04T21:03:02Z</time>
      </trkpt>
    </trkseg>
  </trk>
</gpx>